<?xml version="1.0" encoding="UTF-8" standalone="no" ?>
<gpx xmlns="http://www.topografix.com/GPX/1/1" xmlns:xsi="http://www.w3.org/2001/XMLSchema-instance" xsi:schemaLocation="http://www.topografix.com/GPX/1/1 http://www.topografix.com/GPX/1/1/gpx.xsd" version="1.1" creator="VisuGPX - https://www.visugpx.com">
  <metadata>
    <name>Sentier &quot;Cami de les Escudelles</name>
    <desc><![CDATA[Le rocher, situé à l’Est du village d’Evol, sur un petit plateau herbeux à mi-pente, à 
la limite de la forêt des Comelles, est un entablement du schiste important (7m de 
long sur 4m de large et environ 3m de haut), en marche d’escalier. 
Visible de loin, c’est un belvédère qui domine Olette et ses environs. ]]></desc>
  </metadata>
  <trk>
    <name><![CDATA[Le Cami de Les Escudelles]]></name>
    <trkseg>
      <trkpt lat="42.57111" lon="2.25379">
        <ele>792</ele>
        <time>2017-05-20T12:09:07Z</time>
      </trkpt>
      <trkpt lat="42.57111" lon="2.25379">
        <ele>792</ele>
        <time>2017-05-20T12:09:08Z</time>
      </trkpt>
      <trkpt lat="42.57111" lon="2.25381">
        <ele>793</ele>
        <time>2017-05-20T12:09:24Z</time>
      </trkpt>
      <trkpt lat="42.57107" lon="2.25386">
        <ele>795</ele>
        <time>2017-05-20T12:09:34Z</time>
      </trkpt>
      <trkpt lat="42.57097" lon="2.25394">
        <ele>799</ele>
        <time>2017-05-20T12:09:45Z</time>
      </trkpt>
      <trkpt lat="42.57086" lon="2.2539">
        <ele>799</ele>
        <time>2017-05-20T12:09:58Z</time>
      </trkpt>
      <trkpt lat="42.57079" lon="2.25383">
        <ele>797</ele>
        <time>2017-05-20T12:10:09Z</time>
      </trkpt>
      <trkpt lat="42.5707" lon="2.25378">
        <ele>796</ele>
        <time>2017-05-20T12:10:21Z</time>
      </trkpt>
      <trkpt lat="42.57066" lon="2.25377">
        <ele>796</ele>
        <time>2017-05-20T12:10:25Z</time>
      </trkpt>
      <trkpt lat="42.57055" lon="2.25377">
        <ele>797</ele>
        <time>2017-05-20T12:10:36Z</time>
      </trkpt>
      <trkpt lat="42.57044" lon="2.25375">
        <ele>796</ele>
        <time>2017-05-20T12:10:47Z</time>
      </trkpt>
      <trkpt lat="42.57035" lon="2.25375">
        <ele>796</ele>
        <time>2017-05-20T12:10:58Z</time>
      </trkpt>
      <trkpt lat="42.57036" lon="2.25367">
        <ele>792</ele>
        <time>2017-05-20T12:11:09Z</time>
      </trkpt>
      <trkpt lat="42.57034" lon="2.25357">
        <ele>788</ele>
        <time>2017-05-20T12:11:20Z</time>
      </trkpt>
      <trkpt lat="42.57033" lon="2.25357">
        <ele>788</ele>
        <time>2017-05-20T12:11:30Z</time>
      </trkpt>
      <trkpt lat="42.57031" lon="2.25351">
        <ele>786</ele>
        <time>2017-05-20T12:11:40Z</time>
      </trkpt>
      <trkpt lat="42.57021" lon="2.25351">
        <ele>786</ele>
        <time>2017-05-20T12:11:49Z</time>
      </trkpt>
      <trkpt lat="42.57011" lon="2.25352">
        <ele>786</ele>
        <time>2017-05-20T12:11:58Z</time>
      </trkpt>
      <trkpt lat="42.57006" lon="2.25352">
        <ele>785</ele>
        <time>2017-05-20T12:12:06Z</time>
      </trkpt>
      <trkpt lat="42.57002" lon="2.25351">
        <ele>784</ele>
        <time>2017-05-20T12:12:18Z</time>
      </trkpt>
      <trkpt lat="42.56992" lon="2.25355">
        <ele>784</ele>
        <time>2017-05-20T12:12:27Z</time>
      </trkpt>
      <trkpt lat="42.56983" lon="2.25368">
        <ele>786</ele>
        <time>2017-05-20T12:12:39Z</time>
      </trkpt>
      <trkpt lat="42.56976" lon="2.25377">
        <ele>788</ele>
        <time>2017-05-20T12:12:48Z</time>
      </trkpt>
      <trkpt lat="42.56969" lon="2.25386">
        <ele>788</ele>
        <time>2017-05-20T12:12:57Z</time>
      </trkpt>
      <trkpt lat="42.5696" lon="2.25397">
        <ele>789</ele>
        <time>2017-05-20T12:13:08Z</time>
      </trkpt>
      <trkpt lat="42.56958" lon="2.254">
        <ele>789</ele>
        <time>2017-05-20T12:13:10Z</time>
      </trkpt>
      <trkpt lat="42.56949" lon="2.25407">
        <ele>788</ele>
        <time>2017-05-20T12:13:20Z</time>
      </trkpt>
      <trkpt lat="42.56945" lon="2.25413">
        <ele>788</ele>
        <time>2017-05-20T12:13:26Z</time>
      </trkpt>
      <trkpt lat="42.56938" lon="2.25422">
        <ele>788</ele>
        <time>2017-05-20T12:13:36Z</time>
      </trkpt>
      <trkpt lat="42.56929" lon="2.25431">
        <ele>787</ele>
        <time>2017-05-20T12:13:47Z</time>
      </trkpt>
      <trkpt lat="42.56916" lon="2.25438">
        <ele>785</ele>
        <time>2017-05-20T12:14:00Z</time>
      </trkpt>
      <trkpt lat="42.56909" lon="2.25447">
        <ele>785</ele>
        <time>2017-05-20T12:14:11Z</time>
      </trkpt>
      <trkpt lat="42.569" lon="2.25455">
        <ele>784</ele>
        <time>2017-05-20T12:14:19Z</time>
      </trkpt>
      <trkpt lat="42.56895" lon="2.25467">
        <ele>785</ele>
        <time>2017-05-20T12:14:26Z</time>
      </trkpt>
      <trkpt lat="42.56891" lon="2.25477">
        <ele>785</ele>
        <time>2017-05-20T12:14:38Z</time>
      </trkpt>
      <trkpt lat="42.56881" lon="2.2549">
        <ele>784</ele>
        <time>2017-05-20T12:14:51Z</time>
      </trkpt>
      <trkpt lat="42.56878" lon="2.25503">
        <ele>785</ele>
        <time>2017-05-20T12:15:01Z</time>
      </trkpt>
      <trkpt lat="42.5688" lon="2.25509">
        <ele>787</ele>
        <time>2017-05-20T12:15:14Z</time>
      </trkpt>
      <trkpt lat="42.56881" lon="2.25512">
        <ele>787</ele>
        <time>2017-05-20T12:15:27Z</time>
      </trkpt>
      <trkpt lat="42.5688" lon="2.25523">
        <ele>789</ele>
        <time>2017-05-20T12:15:37Z</time>
      </trkpt>
      <trkpt lat="42.5688" lon="2.25525">
        <ele>789</ele>
        <time>2017-05-20T12:15:38Z</time>
      </trkpt>
      <trkpt lat="42.56878" lon="2.25536">
        <ele>790</ele>
        <time>2017-05-20T12:15:45Z</time>
      </trkpt>
      <trkpt lat="42.56881" lon="2.25542">
        <ele>792</ele>
        <time>2017-05-20T12:15:55Z</time>
      </trkpt>
      <trkpt lat="42.56889" lon="2.25543">
        <ele>795</ele>
        <time>2017-05-20T12:16:05Z</time>
      </trkpt>
      <trkpt lat="42.56894" lon="2.25547">
        <ele>797</ele>
        <time>2017-05-20T12:16:17Z</time>
      </trkpt>
      <trkpt lat="42.56897" lon="2.25549">
        <ele>799</ele>
        <time>2017-05-20T12:16:31Z</time>
      </trkpt>
      <trkpt lat="42.56899" lon="2.2555">
        <ele>800</ele>
        <time>2017-05-20T12:16:41Z</time>
      </trkpt>
      <trkpt lat="42.56896" lon="2.25557">
        <ele>800</ele>
        <time>2017-05-20T12:16:51Z</time>
      </trkpt>
      <trkpt lat="42.56894" lon="2.25561">
        <ele>799</ele>
        <time>2017-05-20T12:16:55Z</time>
      </trkpt>
      <trkpt lat="42.56889" lon="2.25572">
        <ele>799</ele>
        <time>2017-05-20T12:17:05Z</time>
      </trkpt>
      <trkpt lat="42.56885" lon="2.25584">
        <ele>799</ele>
        <time>2017-05-20T12:17:15Z</time>
      </trkpt>
      <trkpt lat="42.56881" lon="2.25596">
        <ele>799</ele>
        <time>2017-05-20T12:17:25Z</time>
      </trkpt>
      <trkpt lat="42.56877" lon="2.25607">
        <ele>800</ele>
        <time>2017-05-20T12:17:33Z</time>
      </trkpt>
      <trkpt lat="42.56874" lon="2.25618">
        <ele>801</ele>
        <time>2017-05-20T12:17:42Z</time>
      </trkpt>
      <trkpt lat="42.56874" lon="2.25619">
        <ele>802</ele>
        <time>2017-05-20T12:17:43Z</time>
      </trkpt>
      <trkpt lat="42.56867" lon="2.25637">
        <ele>804</ele>
        <time>2017-05-20T12:17:53Z</time>
      </trkpt>
      <trkpt lat="42.56863" lon="2.25652">
        <ele>807</ele>
        <time>2017-05-20T12:18:02Z</time>
      </trkpt>
      <trkpt lat="42.56862" lon="2.25663">
        <ele>810</ele>
        <time>2017-05-20T12:18:18Z</time>
      </trkpt>
      <trkpt lat="42.56858" lon="2.25668">
        <ele>812</ele>
        <time>2017-05-20T12:18:30Z</time>
      </trkpt>
      <trkpt lat="42.5686" lon="2.25664">
        <ele>811</ele>
        <time>2017-05-20T12:18:44Z</time>
      </trkpt>
      <trkpt lat="42.56858" lon="2.25675">
        <ele>814</ele>
        <time>2017-05-20T12:18:59Z</time>
      </trkpt>
      <trkpt lat="42.56851" lon="2.25676">
        <ele>815</ele>
        <time>2017-05-20T12:19:15Z</time>
      </trkpt>
      <trkpt lat="42.56854" lon="2.2568">
        <ele>816</ele>
        <time>2017-05-20T12:19:31Z</time>
      </trkpt>
      <trkpt lat="42.56853" lon="2.25681">
        <ele>816</ele>
        <time>2017-05-20T12:19:32Z</time>
      </trkpt>
      <trkpt lat="42.56845" lon="2.25683">
        <ele>817</ele>
        <time>2017-05-20T12:19:44Z</time>
      </trkpt>
      <trkpt lat="42.56843" lon="2.2568">
        <ele>816</ele>
        <time>2017-05-20T12:19:58Z</time>
      </trkpt>
      <trkpt lat="42.5684" lon="2.25674">
        <ele>814</ele>
        <time>2017-05-20T12:20:10Z</time>
      </trkpt>
      <trkpt lat="42.56834" lon="2.25669">
        <ele>812</ele>
        <time>2017-05-20T12:20:22Z</time>
      </trkpt>
      <trkpt lat="42.56829" lon="2.25663">
        <ele>811</ele>
        <time>2017-05-20T12:20:35Z</time>
      </trkpt>
      <trkpt lat="42.56821" lon="2.25658">
        <ele>811</ele>
        <time>2017-05-20T12:20:49Z</time>
      </trkpt>
      <trkpt lat="42.56813" lon="2.25653">
        <ele>811</ele>
        <time>2017-05-20T12:21:00Z</time>
      </trkpt>
      <trkpt lat="42.56811" lon="2.2565">
        <ele>810</ele>
        <time>2017-05-20T12:21:11Z</time>
      </trkpt>
      <trkpt lat="42.56811" lon="2.25647">
        <ele>809</ele>
        <time>2017-05-20T12:21:24Z</time>
      </trkpt>
      <trkpt lat="42.56807" lon="2.25646">
        <ele>809</ele>
        <time>2017-05-20T12:21:36Z</time>
      </trkpt>
      <trkpt lat="42.56805" lon="2.25646">
        <ele>810</ele>
        <time>2017-05-20T12:21:46Z</time>
      </trkpt>
      <trkpt lat="42.56802" lon="2.25648">
        <ele>812</ele>
        <time>2017-05-20T12:21:57Z</time>
      </trkpt>
      <trkpt lat="42.56797" lon="2.25651">
        <ele>814</ele>
        <time>2017-05-20T12:22:07Z</time>
      </trkpt>
      <trkpt lat="42.56794" lon="2.25654">
        <ele>816</ele>
        <time>2017-05-20T12:22:20Z</time>
      </trkpt>
      <trkpt lat="42.56789" lon="2.25659">
        <ele>819</ele>
        <time>2017-05-20T12:22:31Z</time>
      </trkpt>
      <trkpt lat="42.56786" lon="2.25663">
        <ele>820</ele>
        <time>2017-05-20T12:22:46Z</time>
      </trkpt>
      <trkpt lat="42.56787" lon="2.25668">
        <ele>822</ele>
        <time>2017-05-20T12:23:03Z</time>
      </trkpt>
      <trkpt lat="42.56789" lon="2.25673">
        <ele>824</ele>
        <time>2017-05-20T12:23:16Z</time>
      </trkpt>
      <trkpt lat="42.56789" lon="2.25677">
        <ele>826</ele>
        <time>2017-05-20T12:23:27Z</time>
      </trkpt>
      <trkpt lat="42.56786" lon="2.25678">
        <ele>826</ele>
        <time>2017-05-20T12:23:37Z</time>
      </trkpt>
      <trkpt lat="42.56784" lon="2.25679">
        <ele>826</ele>
        <time>2017-05-20T12:23:55Z</time>
      </trkpt>
      <trkpt lat="42.56782" lon="2.25682">
        <ele>826</ele>
        <time>2017-05-20T12:24:05Z</time>
      </trkpt>
      <trkpt lat="42.56775" lon="2.25687">
        <ele>827</ele>
        <time>2017-05-20T12:24:20Z</time>
      </trkpt>
      <trkpt lat="42.56769" lon="2.25696">
        <ele>829</ele>
        <time>2017-05-20T12:24:33Z</time>
      </trkpt>
      <trkpt lat="42.56763" lon="2.25701">
        <ele>830</ele>
        <time>2017-05-20T12:24:45Z</time>
      </trkpt>
      <trkpt lat="42.56759" lon="2.25706">
        <ele>831</ele>
        <time>2017-05-20T12:24:56Z</time>
      </trkpt>
      <trkpt lat="42.56758" lon="2.25706">
        <ele>831</ele>
        <time>2017-05-20T12:25:11Z</time>
      </trkpt>
      <trkpt lat="42.56755" lon="2.2571">
        <ele>832</ele>
        <time>2017-05-20T12:25:22Z</time>
      </trkpt>
      <trkpt lat="42.56751" lon="2.25717">
        <ele>834</ele>
        <time>2017-05-20T12:25:32Z</time>
      </trkpt>
      <trkpt lat="42.56744" lon="2.25727">
        <ele>836</ele>
        <time>2017-05-20T12:25:46Z</time>
      </trkpt>
      <trkpt lat="42.56738" lon="2.25738">
        <ele>839</ele>
        <time>2017-05-20T12:26:02Z</time>
      </trkpt>
      <trkpt lat="42.56738" lon="2.25738">
        <ele>839</ele>
        <time>2017-05-20T12:26:14Z</time>
      </trkpt>
      <trkpt lat="42.56736" lon="2.25742">
        <ele>840</ele>
        <time>2017-05-20T12:26:27Z</time>
      </trkpt>
      <trkpt lat="42.56732" lon="2.25749">
        <ele>842</ele>
        <time>2017-05-20T12:26:39Z</time>
      </trkpt>
      <trkpt lat="42.56728" lon="2.25755">
        <ele>842</ele>
        <time>2017-05-20T12:26:53Z</time>
      </trkpt>
      <trkpt lat="42.56727" lon="2.25757">
        <ele>843</ele>
        <time>2017-05-20T12:27:05Z</time>
      </trkpt>
      <trkpt lat="42.56721" lon="2.25761">
        <ele>843</ele>
        <time>2017-05-20T12:27:22Z</time>
      </trkpt>
      <trkpt lat="42.56718" lon="2.25766">
        <ele>844</ele>
        <time>2017-05-20T12:27:33Z</time>
      </trkpt>
      <trkpt lat="42.56716" lon="2.25777">
        <ele>847</ele>
        <time>2017-05-20T12:27:49Z</time>
      </trkpt>
      <trkpt lat="42.56715" lon="2.25782">
        <ele>848</ele>
        <time>2017-05-20T12:27:55Z</time>
      </trkpt>
      <trkpt lat="42.5671" lon="2.25789">
        <ele>849</ele>
        <time>2017-05-20T12:28:10Z</time>
      </trkpt>
      <trkpt lat="42.56709" lon="2.25793">
        <ele>850</ele>
        <time>2017-05-20T12:28:24Z</time>
      </trkpt>
      <trkpt lat="42.56708" lon="2.25799">
        <ele>852</ele>
        <time>2017-05-20T12:28:36Z</time>
      </trkpt>
      <trkpt lat="42.56704" lon="2.25804">
        <ele>853</ele>
        <time>2017-05-20T12:28:50Z</time>
      </trkpt>
      <trkpt lat="42.56704" lon="2.25809">
        <ele>855</ele>
        <time>2017-05-20T12:29:00Z</time>
      </trkpt>
      <trkpt lat="42.56704" lon="2.2581">
        <ele>855</ele>
        <time>2017-05-20T12:29:12Z</time>
      </trkpt>
      <trkpt lat="42.56699" lon="2.25818">
        <ele>857</ele>
        <time>2017-05-20T12:29:24Z</time>
      </trkpt>
      <trkpt lat="42.56698" lon="2.25819">
        <ele>857</ele>
        <time>2017-05-20T12:29:37Z</time>
      </trkpt>
      <trkpt lat="42.56701" lon="2.25821">
        <ele>859</ele>
        <time>2017-05-20T12:29:49Z</time>
      </trkpt>
      <trkpt lat="42.56694" lon="2.25827">
        <ele>858</ele>
        <time>2017-05-20T12:30:00Z</time>
      </trkpt>
      <trkpt lat="42.56697" lon="2.25831">
        <ele>861</ele>
        <time>2017-05-20T12:30:11Z</time>
      </trkpt>
      <trkpt lat="42.56696" lon="2.25838">
        <ele>863</ele>
        <time>2017-05-20T12:30:24Z</time>
      </trkpt>
      <trkpt lat="42.56694" lon="2.25841">
        <ele>863</ele>
        <time>2017-05-20T12:30:36Z</time>
      </trkpt>
      <trkpt lat="42.56692" lon="2.25841">
        <ele>862</ele>
        <time>2017-05-20T12:30:52Z</time>
      </trkpt>
      <trkpt lat="42.5669" lon="2.25847">
        <ele>863</ele>
        <time>2017-05-20T12:31:02Z</time>
      </trkpt>
      <trkpt lat="42.56688" lon="2.2585">
        <ele>864</ele>
        <time>2017-05-20T12:31:13Z</time>
      </trkpt>
      <trkpt lat="42.56688" lon="2.25852">
        <ele>865</ele>
        <time>2017-05-20T12:31:27Z</time>
      </trkpt>
      <trkpt lat="42.56689" lon="2.25858">
        <ele>867</ele>
        <time>2017-05-20T12:31:37Z</time>
      </trkpt>
      <trkpt lat="42.56688" lon="2.25858">
        <ele>867</ele>
        <time>2017-05-20T12:31:47Z</time>
      </trkpt>
      <trkpt lat="42.56685" lon="2.25859">
        <ele>866</ele>
        <time>2017-05-20T12:32:02Z</time>
      </trkpt>
      <trkpt lat="42.56687" lon="2.25857">
        <ele>866</ele>
        <time>2017-05-20T12:32:16Z</time>
      </trkpt>
      <trkpt lat="42.56687" lon="2.25859">
        <ele>866</ele>
        <time>2017-05-20T12:32:34Z</time>
      </trkpt>
      <trkpt lat="42.56686" lon="2.25858">
        <ele>865</ele>
        <time>2017-05-20T12:32:52Z</time>
      </trkpt>
      <trkpt lat="42.56684" lon="2.25859">
        <ele>865</ele>
        <time>2017-05-20T12:33:09Z</time>
      </trkpt>
      <trkpt lat="42.56685" lon="2.25858">
        <ele>865</ele>
        <time>2017-05-20T12:33:23Z</time>
      </trkpt>
      <trkpt lat="42.56686" lon="2.25858">
        <ele>865</ele>
        <time>2017-05-20T12:33:42Z</time>
      </trkpt>
      <trkpt lat="42.56685" lon="2.25858">
        <ele>865</ele>
        <time>2017-05-20T12:33:58Z</time>
      </trkpt>
      <trkpt lat="42.56685" lon="2.25857">
        <ele>865</ele>
        <time>2017-05-20T12:34:13Z</time>
      </trkpt>
      <trkpt lat="42.56684" lon="2.25858">
        <ele>865</ele>
        <time>2017-05-20T12:34:29Z</time>
      </trkpt>
      <trkpt lat="42.56686" lon="2.25859">
        <ele>866</ele>
        <time>2017-05-20T12:34:46Z</time>
      </trkpt>
      <trkpt lat="42.56684" lon="2.25864">
        <ele>867</ele>
        <time>2017-05-20T12:34:59Z</time>
      </trkpt>
      <trkpt lat="42.56682" lon="2.25868">
        <ele>868</ele>
        <time>2017-05-20T12:35:14Z</time>
      </trkpt>
      <trkpt lat="42.56682" lon="2.25866">
        <ele>867</ele>
        <time>2017-05-20T12:35:30Z</time>
      </trkpt>
      <trkpt lat="42.56686" lon="2.25866">
        <ele>868</ele>
        <time>2017-05-20T12:35:46Z</time>
      </trkpt>
      <trkpt lat="42.56686" lon="2.25874">
        <ele>871</ele>
        <time>2017-05-20T12:35:59Z</time>
      </trkpt>
      <trkpt lat="42.56684" lon="2.25878">
        <ele>872</ele>
        <time>2017-05-20T12:36:13Z</time>
      </trkpt>
      <trkpt lat="42.56683" lon="2.25884">
        <ele>873</ele>
        <time>2017-05-20T12:36:26Z</time>
      </trkpt>
      <trkpt lat="42.56681" lon="2.25884">
        <ele>872</ele>
        <time>2017-05-20T12:36:41Z</time>
      </trkpt>
      <trkpt lat="42.56681" lon="2.25884">
        <ele>872</ele>
        <time>2017-05-20T12:37:00Z</time>
      </trkpt>
      <trkpt lat="42.5668" lon="2.25894">
        <ele>875</ele>
        <time>2017-05-20T12:37:13Z</time>
      </trkpt>
      <trkpt lat="42.56679" lon="2.259">
        <ele>877</ele>
        <time>2017-05-20T12:37:27Z</time>
      </trkpt>
      <trkpt lat="42.56679" lon="2.25902">
        <ele>877</ele>
        <time>2017-05-20T12:37:40Z</time>
      </trkpt>
      <trkpt lat="42.5668" lon="2.25906">
        <ele>879</ele>
        <time>2017-05-20T12:37:53Z</time>
      </trkpt>
      <trkpt lat="42.56673" lon="2.25912">
        <ele>878</ele>
        <time>2017-05-20T12:38:04Z</time>
      </trkpt>
      <trkpt lat="42.56672" lon="2.2592">
        <ele>880</ele>
        <time>2017-05-20T12:38:16Z</time>
      </trkpt>
      <trkpt lat="42.56666" lon="2.2593">
        <ele>881</ele>
        <time>2017-05-20T12:38:29Z</time>
      </trkpt>
      <trkpt lat="42.56667" lon="2.25936">
        <ele>883</ele>
        <time>2017-05-20T12:38:39Z</time>
      </trkpt>
      <trkpt lat="42.56661" lon="2.25944">
        <ele>883</ele>
        <time>2017-05-20T12:38:52Z</time>
      </trkpt>
      <trkpt lat="42.56659" lon="2.2595">
        <ele>885</ele>
        <time>2017-05-20T12:39:04Z</time>
      </trkpt>
      <trkpt lat="42.56656" lon="2.25958">
        <ele>886</ele>
        <time>2017-05-20T12:39:17Z</time>
      </trkpt>
      <trkpt lat="42.56654" lon="2.25963">
        <ele>887</ele>
        <time>2017-05-20T12:39:28Z</time>
      </trkpt>
      <trkpt lat="42.56652" lon="2.2597">
        <ele>889</ele>
        <time>2017-05-20T12:39:43Z</time>
      </trkpt>
      <trkpt lat="42.5665" lon="2.25973">
        <ele>890</ele>
        <time>2017-05-20T12:39:57Z</time>
      </trkpt>
      <trkpt lat="42.56644" lon="2.25973">
        <ele>888</ele>
        <time>2017-05-20T12:40:12Z</time>
      </trkpt>
      <trkpt lat="42.56644" lon="2.25974">
        <ele>889</ele>
        <time>2017-05-20T12:40:28Z</time>
      </trkpt>
      <trkpt lat="42.56642" lon="2.25977">
        <ele>889</ele>
        <time>2017-05-20T12:40:46Z</time>
      </trkpt>
      <trkpt lat="42.5664" lon="2.2598">
        <ele>890</ele>
        <time>2017-05-20T12:40:58Z</time>
      </trkpt>
      <trkpt lat="42.56637" lon="2.25985">
        <ele>891</ele>
        <time>2017-05-20T12:41:11Z</time>
      </trkpt>
      <trkpt lat="42.56635" lon="2.25989">
        <ele>892</ele>
        <time>2017-05-20T12:41:23Z</time>
      </trkpt>
      <trkpt lat="42.56631" lon="2.25991">
        <ele>891</ele>
        <time>2017-05-20T12:41:39Z</time>
      </trkpt>
      <trkpt lat="42.56629" lon="2.25994">
        <ele>892</ele>
        <time>2017-05-20T12:41:53Z</time>
      </trkpt>
      <trkpt lat="42.56626" lon="2.25998">
        <ele>892</ele>
        <time>2017-05-20T12:42:05Z</time>
      </trkpt>
      <trkpt lat="42.56627" lon="2.26003">
        <ele>894</ele>
        <time>2017-05-20T12:42:19Z</time>
      </trkpt>
      <trkpt lat="42.56626" lon="2.26005">
        <ele>895</ele>
        <time>2017-05-20T12:42:32Z</time>
      </trkpt>
      <trkpt lat="42.56625" lon="2.26007">
        <ele>895</ele>
        <time>2017-05-20T12:42:47Z</time>
      </trkpt>
      <trkpt lat="42.56625" lon="2.2601">
        <ele>896</ele>
        <time>2017-05-20T12:43:01Z</time>
      </trkpt>
      <trkpt lat="42.56624" lon="2.26016">
        <ele>898</ele>
        <time>2017-05-20T12:43:13Z</time>
      </trkpt>
      <trkpt lat="42.56622" lon="2.26022">
        <ele>899</ele>
        <time>2017-05-20T12:43:25Z</time>
      </trkpt>
      <trkpt lat="42.56624" lon="2.26024">
        <ele>900</ele>
        <time>2017-05-20T12:43:36Z</time>
      </trkpt>
      <trkpt lat="42.56626" lon="2.26024">
        <ele>901</ele>
        <time>2017-05-20T12:43:47Z</time>
      </trkpt>
      <trkpt lat="42.56632" lon="2.26022">
        <ele>902</ele>
        <time>2017-05-20T12:44:00Z</time>
      </trkpt>
      <trkpt lat="42.56632" lon="2.26021">
        <ele>902</ele>
        <time>2017-05-20T12:44:13Z</time>
      </trkpt>
      <trkpt lat="42.56629" lon="2.26024">
        <ele>902</ele>
        <time>2017-05-20T12:44:24Z</time>
      </trkpt>
      <trkpt lat="42.56631" lon="2.26025">
        <ele>903</ele>
        <time>2017-05-20T12:44:34Z</time>
      </trkpt>
      <trkpt lat="42.56634" lon="2.26025">
        <ele>904</ele>
        <time>2017-05-20T12:44:49Z</time>
      </trkpt>
      <trkpt lat="42.56636" lon="2.26026">
        <ele>904</ele>
        <time>2017-05-20T12:44:57Z</time>
      </trkpt>
      <trkpt lat="42.56637" lon="2.26027">
        <ele>905</ele>
        <time>2017-05-20T12:44:59Z</time>
      </trkpt>
      <trkpt lat="42.56639" lon="2.26031">
        <ele>907</ele>
        <time>2017-05-20T12:45:11Z</time>
      </trkpt>
      <trkpt lat="42.56637" lon="2.26037">
        <ele>908</ele>
        <time>2017-05-20T12:45:22Z</time>
      </trkpt>
      <trkpt lat="42.5664" lon="2.26038">
        <ele>909</ele>
        <time>2017-05-20T12:45:33Z</time>
      </trkpt>
      <trkpt lat="42.56644" lon="2.26033">
        <ele>909</ele>
        <time>2017-05-20T12:45:47Z</time>
      </trkpt>
      <trkpt lat="42.56648" lon="2.26036">
        <ele>911</ele>
        <time>2017-05-20T12:45:59Z</time>
      </trkpt>
      <trkpt lat="42.5665" lon="2.26037">
        <ele>912</ele>
        <time>2017-05-20T12:46:12Z</time>
      </trkpt>
      <trkpt lat="42.56651" lon="2.26038">
        <ele>913</ele>
        <time>2017-05-20T12:46:26Z</time>
      </trkpt>
      <trkpt lat="42.56655" lon="2.26038">
        <ele>914</ele>
        <time>2017-05-20T12:46:38Z</time>
      </trkpt>
      <trkpt lat="42.56661" lon="2.26041">
        <ele>916</ele>
        <time>2017-05-20T12:46:50Z</time>
      </trkpt>
      <trkpt lat="42.56665" lon="2.26043">
        <ele>918</ele>
        <time>2017-05-20T12:47:01Z</time>
      </trkpt>
      <trkpt lat="42.56669" lon="2.26043">
        <ele>920</ele>
        <time>2017-05-20T12:47:13Z</time>
      </trkpt>
      <trkpt lat="42.56672" lon="2.26039">
        <ele>920</ele>
        <time>2017-05-20T12:47:34Z</time>
      </trkpt>
      <trkpt lat="42.56678" lon="2.26038">
        <ele>921</ele>
        <time>2017-05-20T12:47:46Z</time>
      </trkpt>
      <trkpt lat="42.5668" lon="2.26037">
        <ele>921</ele>
        <time>2017-05-20T12:47:58Z</time>
      </trkpt>
      <trkpt lat="42.56681" lon="2.26037">
        <ele>922</ele>
        <time>2017-05-20T12:48:13Z</time>
      </trkpt>
      <trkpt lat="42.56682" lon="2.26037">
        <ele>922</ele>
        <time>2017-05-20T12:48:30Z</time>
      </trkpt>
      <trkpt lat="42.56688" lon="2.26034">
        <ele>923</ele>
        <time>2017-05-20T12:48:41Z</time>
      </trkpt>
      <trkpt lat="42.5669" lon="2.26034">
        <ele>923</ele>
        <time>2017-05-20T12:48:52Z</time>
      </trkpt>
      <trkpt lat="42.56694" lon="2.26032">
        <ele>924</ele>
        <time>2017-05-20T12:49:06Z</time>
      </trkpt>
      <trkpt lat="42.56698" lon="2.26033">
        <ele>925</ele>
        <time>2017-05-20T12:49:17Z</time>
      </trkpt>
      <trkpt lat="42.56704" lon="2.26034">
        <ele>928</ele>
        <time>2017-05-20T12:49:27Z</time>
      </trkpt>
      <trkpt lat="42.56707" lon="2.26034">
        <ele>929</ele>
        <time>2017-05-20T12:49:37Z</time>
      </trkpt>
      <trkpt lat="42.56709" lon="2.26034">
        <ele>930</ele>
        <time>2017-05-20T12:49:53Z</time>
      </trkpt>
      <trkpt lat="42.56709" lon="2.26039">
        <ele>931</ele>
        <time>2017-05-20T12:50:06Z</time>
      </trkpt>
      <trkpt lat="42.56709" lon="2.26039">
        <ele>931</ele>
        <time>2017-05-20T12:50:18Z</time>
      </trkpt>
      <trkpt lat="42.56709" lon="2.26039">
        <ele>931</ele>
        <time>2017-05-20T12:50:29Z</time>
      </trkpt>
      <trkpt lat="42.56709" lon="2.2604">
        <ele>931</ele>
        <time>2017-05-20T12:50:43Z</time>
      </trkpt>
      <trkpt lat="42.56707" lon="2.26041">
        <ele>931</ele>
        <time>2017-05-20T12:50:55Z</time>
      </trkpt>
      <trkpt lat="42.56706" lon="2.26047">
        <ele>933</ele>
        <time>2017-05-20T12:51:07Z</time>
      </trkpt>
      <trkpt lat="42.56705" lon="2.26055">
        <ele>935</ele>
        <time>2017-05-20T12:51:19Z</time>
      </trkpt>
      <trkpt lat="42.56702" lon="2.2606">
        <ele>936</ele>
        <time>2017-05-20T12:51:28Z</time>
      </trkpt>
      <trkpt lat="42.56701" lon="2.26067">
        <ele>938</ele>
        <time>2017-05-20T12:51:38Z</time>
      </trkpt>
      <trkpt lat="42.56699" lon="2.2607">
        <ele>938</ele>
        <time>2017-05-20T12:51:50Z</time>
      </trkpt>
      <trkpt lat="42.56697" lon="2.26077">
        <ele>940</ele>
        <time>2017-05-20T12:52:01Z</time>
      </trkpt>
      <trkpt lat="42.56693" lon="2.26082">
        <ele>941</ele>
        <time>2017-05-20T12:52:11Z</time>
      </trkpt>
      <trkpt lat="42.56691" lon="2.26084">
        <ele>941</ele>
        <time>2017-05-20T12:52:24Z</time>
      </trkpt>
      <trkpt lat="42.56691" lon="2.26085">
        <ele>942</ele>
        <time>2017-05-20T12:52:37Z</time>
      </trkpt>
      <trkpt lat="42.5669" lon="2.26083">
        <ele>940</ele>
        <time>2017-05-20T12:52:50Z</time>
      </trkpt>
      <trkpt lat="42.56688" lon="2.26084">
        <ele>940</ele>
        <time>2017-05-20T12:53:05Z</time>
      </trkpt>
      <trkpt lat="42.56686" lon="2.26081">
        <ele>938</ele>
        <time>2017-05-20T12:53:21Z</time>
      </trkpt>
      <trkpt lat="42.56686" lon="2.26083">
        <ele>939</ele>
        <time>2017-05-20T12:53:39Z</time>
      </trkpt>
      <trkpt lat="42.56684" lon="2.2609">
        <ele>941</ele>
        <time>2017-05-20T12:53:51Z</time>
      </trkpt>
      <trkpt lat="42.56687" lon="2.2609">
        <ele>942</ele>
        <time>2017-05-20T12:54:03Z</time>
      </trkpt>
      <trkpt lat="42.56694" lon="2.26088">
        <ele>944</ele>
        <time>2017-05-20T12:54:16Z</time>
      </trkpt>
      <trkpt lat="42.567" lon="2.26089">
        <ele>945</ele>
        <time>2017-05-20T12:54:29Z</time>
      </trkpt>
      <trkpt lat="42.56704" lon="2.26089">
        <ele>947</ele>
        <time>2017-05-20T12:54:40Z</time>
      </trkpt>
      <trkpt lat="42.56709" lon="2.2609">
        <ele>949</ele>
        <time>2017-05-20T12:54:51Z</time>
      </trkpt>
      <trkpt lat="42.56716" lon="2.26089">
        <ele>951</ele>
        <time>2017-05-20T12:55:03Z</time>
      </trkpt>
      <trkpt lat="42.56722" lon="2.26087">
        <ele>952</ele>
        <time>2017-05-20T12:55:13Z</time>
      </trkpt>
      <trkpt lat="42.56728" lon="2.26083">
        <ele>952</ele>
        <time>2017-05-20T12:55:25Z</time>
      </trkpt>
      <trkpt lat="42.56734" lon="2.2608">
        <ele>953</ele>
        <time>2017-05-20T12:55:42Z</time>
      </trkpt>
      <trkpt lat="42.56735" lon="2.26079">
        <ele>953</ele>
        <time>2017-05-20T12:56:00Z</time>
      </trkpt>
      <trkpt lat="42.56742" lon="2.26073">
        <ele>953</ele>
        <time>2017-05-20T12:56:11Z</time>
      </trkpt>
      <trkpt lat="42.56743" lon="2.26072">
        <ele>953</ele>
        <time>2017-05-20T12:56:23Z</time>
      </trkpt>
      <trkpt lat="42.56744" lon="2.26071">
        <ele>953</ele>
        <time>2017-05-20T12:56:39Z</time>
      </trkpt>
      <trkpt lat="42.56747" lon="2.26069">
        <ele>953</ele>
        <time>2017-05-20T12:56:53Z</time>
      </trkpt>
      <trkpt lat="42.56752" lon="2.26067">
        <ele>953</ele>
        <time>2017-05-20T12:57:05Z</time>
      </trkpt>
      <trkpt lat="42.56756" lon="2.26066">
        <ele>953</ele>
        <time>2017-05-20T12:57:17Z</time>
      </trkpt>
      <trkpt lat="42.56758" lon="2.26066">
        <ele>954</ele>
        <time>2017-05-20T12:57:34Z</time>
      </trkpt>
      <trkpt lat="42.56762" lon="2.26065">
        <ele>954</ele>
        <time>2017-05-20T12:57:46Z</time>
      </trkpt>
      <trkpt lat="42.56766" lon="2.26065">
        <ele>954</ele>
        <time>2017-05-20T12:57:55Z</time>
      </trkpt>
      <trkpt lat="42.56768" lon="2.26065">
        <ele>955</ele>
        <time>2017-05-20T12:58:03Z</time>
      </trkpt>
      <trkpt lat="42.56769" lon="2.26066">
        <ele>955</ele>
        <time>2017-05-20T12:58:13Z</time>
      </trkpt>
      <trkpt lat="42.56771" lon="2.26066">
        <ele>955</ele>
        <time>2017-05-20T12:58:22Z</time>
      </trkpt>
      <trkpt lat="42.56771" lon="2.26065">
        <ele>955</ele>
        <time>2017-05-20T12:58:36Z</time>
      </trkpt>
      <trkpt lat="42.56772" lon="2.26071">
        <ele>957</ele>
        <time>2017-05-20T12:58:50Z</time>
      </trkpt>
      <trkpt lat="42.56774" lon="2.26071">
        <ele>957</ele>
        <time>2017-05-20T12:59:05Z</time>
      </trkpt>
      <trkpt lat="42.56776" lon="2.26074">
        <ele>958</ele>
        <time>2017-05-20T12:59:17Z</time>
      </trkpt>
      <trkpt lat="42.56781" lon="2.26076">
        <ele>959</ele>
        <time>2017-05-20T12:59:26Z</time>
      </trkpt>
      <trkpt lat="42.56785" lon="2.26082">
        <ele>961</ele>
        <time>2017-05-20T12:59:38Z</time>
      </trkpt>
      <trkpt lat="42.56787" lon="2.26084">
        <ele>962</ele>
        <time>2017-05-20T12:59:50Z</time>
      </trkpt>
      <trkpt lat="42.56791" lon="2.26092">
        <ele>963</ele>
        <time>2017-05-20T13:00:02Z</time>
      </trkpt>
      <trkpt lat="42.5679" lon="2.26095">
        <ele>964</ele>
        <time>2017-05-20T13:00:14Z</time>
      </trkpt>
      <trkpt lat="42.56789" lon="2.26099">
        <ele>965</ele>
        <time>2017-05-20T13:00:27Z</time>
      </trkpt>
      <trkpt lat="42.56791" lon="2.26103">
        <ele>966</ele>
        <time>2017-05-20T13:00:37Z</time>
      </trkpt>
      <trkpt lat="42.56792" lon="2.26107">
        <ele>966</ele>
        <time>2017-05-20T13:00:50Z</time>
      </trkpt>
      <trkpt lat="42.56793" lon="2.26111">
        <ele>967</ele>
        <time>2017-05-20T13:01:02Z</time>
      </trkpt>
      <trkpt lat="42.56792" lon="2.2611">
        <ele>967</ele>
        <time>2017-05-20T13:01:16Z</time>
      </trkpt>
      <trkpt lat="42.5679" lon="2.26113">
        <ele>968</ele>
        <time>2017-05-20T13:01:26Z</time>
      </trkpt>
      <trkpt lat="42.56789" lon="2.26116">
        <ele>969</ele>
        <time>2017-05-20T13:01:42Z</time>
      </trkpt>
      <trkpt lat="42.56787" lon="2.26123">
        <ele>970</ele>
        <time>2017-05-20T13:01:56Z</time>
      </trkpt>
      <trkpt lat="42.56787" lon="2.26124">
        <ele>970</ele>
        <time>2017-05-20T13:02:16Z</time>
      </trkpt>
      <trkpt lat="42.56786" lon="2.26127">
        <ele>971</ele>
        <time>2017-05-20T13:02:33Z</time>
      </trkpt>
      <trkpt lat="42.56782" lon="2.26133">
        <ele>973</ele>
        <time>2017-05-20T13:02:46Z</time>
      </trkpt>
      <trkpt lat="42.56781" lon="2.26138">
        <ele>975</ele>
        <time>2017-05-20T13:03:01Z</time>
      </trkpt>
      <trkpt lat="42.56779" lon="2.26141">
        <ele>976</ele>
        <time>2017-05-20T13:03:19Z</time>
      </trkpt>
      <trkpt lat="42.56778" lon="2.26147">
        <ele>978</ele>
        <time>2017-05-20T13:03:32Z</time>
      </trkpt>
      <trkpt lat="42.56778" lon="2.26151">
        <ele>979</ele>
        <time>2017-05-20T13:03:43Z</time>
      </trkpt>
      <trkpt lat="42.56778" lon="2.26153">
        <ele>980</ele>
        <time>2017-05-20T13:04:01Z</time>
      </trkpt>
      <trkpt lat="42.56775" lon="2.26156">
        <ele>981</ele>
        <time>2017-05-20T13:04:15Z</time>
      </trkpt>
      <trkpt lat="42.56772" lon="2.26164">
        <ele>983</ele>
        <time>2017-05-20T13:04:29Z</time>
      </trkpt>
      <trkpt lat="42.5677" lon="2.26171">
        <ele>985</ele>
        <time>2017-05-20T13:04:47Z</time>
      </trkpt>
      <trkpt lat="42.56769" lon="2.26173">
        <ele>986</ele>
        <time>2017-05-20T13:05:05Z</time>
      </trkpt>
      <trkpt lat="42.56768" lon="2.26175">
        <ele>987</ele>
        <time>2017-05-20T13:05:22Z</time>
      </trkpt>
      <trkpt lat="42.56769" lon="2.26177">
        <ele>987</ele>
        <time>2017-05-20T13:05:39Z</time>
      </trkpt>
      <trkpt lat="42.56768" lon="2.26179">
        <ele>988</ele>
        <time>2017-05-20T13:05:51Z</time>
      </trkpt>
      <trkpt lat="42.56765" lon="2.26184">
        <ele>989</ele>
        <time>2017-05-20T13:06:04Z</time>
      </trkpt>
      <trkpt lat="42.56765" lon="2.26184">
        <ele>989</ele>
        <time>2017-05-20T13:06:20Z</time>
      </trkpt>
      <trkpt lat="42.56765" lon="2.26185">
        <ele>990</ele>
        <time>2017-05-20T13:06:37Z</time>
      </trkpt>
      <trkpt lat="42.56765" lon="2.26186">
        <ele>990</ele>
        <time>2017-05-20T13:06:59Z</time>
      </trkpt>
      <trkpt lat="42.56765" lon="2.26185">
        <ele>990</ele>
        <time>2017-05-20T13:07:14Z</time>
      </trkpt>
      <trkpt lat="42.56762" lon="2.26185">
        <ele>990</ele>
        <time>2017-05-20T13:07:31Z</time>
      </trkpt>
      <trkpt lat="42.56762" lon="2.26186">
        <ele>990</ele>
        <time>2017-05-20T13:07:48Z</time>
      </trkpt>
      <trkpt lat="42.5676" lon="2.26186">
        <ele>990</ele>
        <time>2017-05-20T13:08:07Z</time>
      </trkpt>
      <trkpt lat="42.56757" lon="2.26193">
        <ele>992</ele>
        <time>2017-05-20T13:08:18Z</time>
      </trkpt>
      <trkpt lat="42.56755" lon="2.26196">
        <ele>992</ele>
        <time>2017-05-20T13:08:30Z</time>
      </trkpt>
      <trkpt lat="42.56754" lon="2.262">
        <ele>993</ele>
        <time>2017-05-20T13:08:44Z</time>
      </trkpt>
      <trkpt lat="42.5675" lon="2.26207">
        <ele>995</ele>
        <time>2017-05-20T13:08:58Z</time>
      </trkpt>
      <trkpt lat="42.56748" lon="2.26211">
        <ele>996</ele>
        <time>2017-05-20T13:09:08Z</time>
      </trkpt>
      <trkpt lat="42.56746" lon="2.26212">
        <ele>997</ele>
        <time>2017-05-20T13:09:21Z</time>
      </trkpt>
      <trkpt lat="42.56741" lon="2.2622">
        <ele>998</ele>
        <time>2017-05-20T13:09:37Z</time>
      </trkpt>
      <trkpt lat="42.56736" lon="2.26228">
        <ele>1000</ele>
        <time>2017-05-20T13:09:50Z</time>
      </trkpt>
      <trkpt lat="42.56734" lon="2.2623">
        <ele>1001</ele>
        <time>2017-05-20T13:10:05Z</time>
      </trkpt>
      <trkpt lat="42.56733" lon="2.2623">
        <ele>1001</ele>
        <time>2017-05-20T13:10:19Z</time>
      </trkpt>
      <trkpt lat="42.56728" lon="2.26235">
        <ele>1001</ele>
        <time>2017-05-20T13:10:35Z</time>
      </trkpt>
      <trkpt lat="42.56722" lon="2.26242">
        <ele>1003</ele>
        <time>2017-05-20T13:10:48Z</time>
      </trkpt>
      <trkpt lat="42.56713" lon="2.2625">
        <ele>1004</ele>
        <time>2017-05-20T13:11:01Z</time>
      </trkpt>
      <trkpt lat="42.56707" lon="2.26254">
        <ele>1005</ele>
        <time>2017-05-20T13:11:10Z</time>
      </trkpt>
      <trkpt lat="42.56697" lon="2.26259">
        <ele>1005</ele>
        <time>2017-05-20T13:11:24Z</time>
      </trkpt>
      <trkpt lat="42.56692" lon="2.26265">
        <ele>1006</ele>
        <time>2017-05-20T13:11:35Z</time>
      </trkpt>
      <trkpt lat="42.56692" lon="2.26266">
        <ele>1007</ele>
        <time>2017-05-20T13:11:50Z</time>
      </trkpt>
      <trkpt lat="42.56692" lon="2.26267">
        <ele>1007</ele>
        <time>2017-05-20T13:12:07Z</time>
      </trkpt>
      <trkpt lat="42.5669" lon="2.26269">
        <ele>1007</ele>
        <time>2017-05-20T13:12:26Z</time>
      </trkpt>
      <trkpt lat="42.56689" lon="2.26272">
        <ele>1008</ele>
        <time>2017-05-20T13:12:44Z</time>
      </trkpt>
      <trkpt lat="42.56686" lon="2.26279">
        <ele>1010</ele>
        <time>2017-05-20T13:12:58Z</time>
      </trkpt>
      <trkpt lat="42.56682" lon="2.26284">
        <ele>1011</ele>
        <time>2017-05-20T13:13:13Z</time>
      </trkpt>
      <trkpt lat="42.56681" lon="2.26286">
        <ele>1012</ele>
        <time>2017-05-20T13:13:30Z</time>
      </trkpt>
      <trkpt lat="42.56678" lon="2.2629">
        <ele>1012</ele>
        <time>2017-05-20T13:13:40Z</time>
      </trkpt>
      <trkpt lat="42.56671" lon="2.26298">
        <ele>1014</ele>
        <time>2017-05-20T13:13:53Z</time>
      </trkpt>
      <trkpt lat="42.56665" lon="2.26306">
        <ele>1016</ele>
        <time>2017-05-20T13:14:05Z</time>
      </trkpt>
      <trkpt lat="42.56654" lon="2.26317">
        <ele>1018</ele>
        <time>2017-05-20T13:14:24Z</time>
      </trkpt>
      <trkpt lat="42.56652" lon="2.26318">
        <ele>1018</ele>
        <time>2017-05-20T13:14:39Z</time>
      </trkpt>
      <trkpt lat="42.5665" lon="2.2632">
        <ele>1018</ele>
        <time>2017-05-20T13:14:57Z</time>
      </trkpt>
      <trkpt lat="42.56647" lon="2.26322">
        <ele>1018</ele>
        <time>2017-05-20T13:15:13Z</time>
      </trkpt>
      <trkpt lat="42.56643" lon="2.26329">
        <ele>1019</ele>
        <time>2017-05-20T13:15:25Z</time>
      </trkpt>
      <trkpt lat="42.56638" lon="2.2634">
        <ele>1021</ele>
        <time>2017-05-20T13:15:40Z</time>
      </trkpt>
      <trkpt lat="42.56631" lon="2.26352">
        <ele>1023</ele>
        <time>2017-05-20T13:15:57Z</time>
      </trkpt>
      <trkpt lat="42.56621" lon="2.26363">
        <ele>1023</ele>
        <time>2017-05-20T13:16:13Z</time>
      </trkpt>
      <trkpt lat="42.56611" lon="2.26367">
        <ele>1023</ele>
      </trkpt>
      <trkpt lat="42.56609" lon="2.26371">
        <ele>1023</ele>
        <time>2017-05-20T13:16:28Z</time>
      </trkpt>
      <trkpt lat="42.56603" lon="2.26376">
        <ele>1023</ele>
        <time>2017-05-20T13:16:39Z</time>
      </trkpt>
      <trkpt lat="42.56601" lon="2.26376">
        <ele>1023</ele>
        <time>2017-05-20T13:16:53Z</time>
      </trkpt>
      <trkpt lat="42.56597" lon="2.2638">
        <ele>1023</ele>
        <time>2017-05-20T13:17:03Z</time>
      </trkpt>
      <trkpt lat="42.56591" lon="2.26387">
        <ele>1023</ele>
        <time>2017-05-20T13:17:15Z</time>
      </trkpt>
      <trkpt lat="42.56583" lon="2.26395">
        <ele>1024</ele>
        <time>2017-05-20T13:17:26Z</time>
      </trkpt>
      <trkpt lat="42.56574" lon="2.26402">
        <ele>1024</ele>
        <time>2017-05-20T13:17:39Z</time>
      </trkpt>
      <trkpt lat="42.56566" lon="2.26407">
        <ele>1024</ele>
        <time>2017-05-20T13:17:49Z</time>
      </trkpt>
      <trkpt lat="42.56561" lon="2.26414">
        <ele>1024</ele>
        <time>2017-05-20T13:17:59Z</time>
      </trkpt>
      <trkpt lat="42.5656" lon="2.26419">
        <ele>1025</ele>
        <time>2017-05-20T13:18:12Z</time>
      </trkpt>
      <trkpt lat="42.56559" lon="2.26423">
        <ele>1026</ele>
        <time>2017-05-20T13:18:28Z</time>
      </trkpt>
      <trkpt lat="42.56558" lon="2.26423">
        <ele>1026</ele>
        <time>2017-05-20T13:18:47Z</time>
      </trkpt>
      <trkpt lat="42.56557" lon="2.26427">
        <ele>1026</ele>
        <time>2017-05-20T13:19:09Z</time>
      </trkpt>
      <trkpt lat="42.56557" lon="2.26436">
        <ele>1028</ele>
        <time>2017-05-20T13:19:25Z</time>
      </trkpt>
      <trkpt lat="42.56555" lon="2.2644">
        <ele>1029</ele>
        <time>2017-05-20T13:19:39Z</time>
      </trkpt>
      <trkpt lat="42.56556" lon="2.26449">
        <ele>1031</ele>
        <time>2017-05-20T13:19:53Z</time>
      </trkpt>
      <trkpt lat="42.56556" lon="2.26451">
        <ele>1032</ele>
        <time>2017-05-20T13:19:59Z</time>
      </trkpt>
      <trkpt lat="42.56558" lon="2.26453">
        <ele>1033</ele>
        <time>2017-05-20T13:20:16Z</time>
      </trkpt>
      <trkpt lat="42.56556" lon="2.26456">
        <ele>1033</ele>
        <time>2017-05-20T13:20:32Z</time>
      </trkpt>
      <trkpt lat="42.56554" lon="2.26463">
        <ele>1034</ele>
        <time>2017-05-20T13:20:44Z</time>
      </trkpt>
      <trkpt lat="42.5655" lon="2.26473">
        <ele>1036</ele>
        <time>2017-05-20T13:20:58Z</time>
      </trkpt>
      <trkpt lat="42.56545" lon="2.26482">
        <ele>1037</ele>
        <time>2017-05-20T13:21:10Z</time>
      </trkpt>
      <trkpt lat="42.56542" lon="2.26489">
        <ele>1038</ele>
        <time>2017-05-20T13:21:21Z</time>
      </trkpt>
      <trkpt lat="42.56539" lon="2.26496">
        <ele>1038</ele>
        <time>2017-05-20T13:21:32Z</time>
      </trkpt>
      <trkpt lat="42.56534" lon="2.2651">
        <ele>1040</ele>
        <time>2017-05-20T13:21:48Z</time>
      </trkpt>
      <trkpt lat="42.56533" lon="2.26512">
        <ele>1040</ele>
        <time>2017-05-20T13:22:02Z</time>
      </trkpt>
      <trkpt lat="42.56532" lon="2.26519">
        <ele>1041</ele>
        <time>2017-05-20T13:22:13Z</time>
      </trkpt>
      <trkpt lat="42.5653" lon="2.26522">
        <ele>1042</ele>
        <time>2017-05-20T13:22:16Z</time>
      </trkpt>
      <trkpt lat="42.56529" lon="2.26531">
        <ele>1043</ele>
        <time>2017-05-20T13:22:27Z</time>
      </trkpt>
      <trkpt lat="42.56526" lon="2.2654">
        <ele>1045</ele>
        <time>2017-05-20T13:22:39Z</time>
      </trkpt>
      <trkpt lat="42.56525" lon="2.26546">
        <ele>1046</ele>
        <time>2017-05-20T13:22:53Z</time>
      </trkpt>
      <trkpt lat="42.56524" lon="2.26549">
        <ele>1046</ele>
        <time>2017-05-20T13:23:08Z</time>
      </trkpt>
      <trkpt lat="42.5652" lon="2.2655">
        <ele>1045</ele>
        <time>2017-05-20T13:23:17Z</time>
      </trkpt>
      <trkpt lat="42.56514" lon="2.26552">
        <ele>1045</ele>
        <time>2017-05-20T13:23:35Z</time>
      </trkpt>
      <trkpt lat="42.56516" lon="2.26555">
        <ele>1045</ele>
        <time>2017-05-20T13:23:47Z</time>
      </trkpt>
      <trkpt lat="42.56517" lon="2.26557">
        <ele>1046</ele>
        <time>2017-05-20T13:24:04Z</time>
      </trkpt>
      <trkpt lat="42.56519" lon="2.26565">
        <ele>1048</ele>
        <time>2017-05-20T13:24:23Z</time>
      </trkpt>
      <trkpt lat="42.56517" lon="2.2657">
        <ele>1048</ele>
        <time>2017-05-20T13:24:36Z</time>
      </trkpt>
      <trkpt lat="42.56519" lon="2.26573">
        <ele>1049</ele>
        <time>2017-05-20T13:24:53Z</time>
      </trkpt>
      <trkpt lat="42.56518" lon="2.26572">
        <ele>1049</ele>
        <time>2017-05-20T13:25:12Z</time>
      </trkpt>
      <trkpt lat="42.56519" lon="2.26578">
        <ele>1050</ele>
        <time>2017-05-20T13:25:23Z</time>
      </trkpt>
      <trkpt lat="42.56517" lon="2.26586">
        <ele>1051</ele>
        <time>2017-05-20T13:25:37Z</time>
      </trkpt>
      <trkpt lat="42.56516" lon="2.26593">
        <ele>1052</ele>
        <time>2017-05-20T13:25:49Z</time>
      </trkpt>
      <trkpt lat="42.56512" lon="2.26607">
        <ele>1053</ele>
        <time>2017-05-20T13:26:04Z</time>
      </trkpt>
      <trkpt lat="42.56511" lon="2.26611">
        <ele>1053</ele>
        <time>2017-05-20T13:26:16Z</time>
      </trkpt>
      <trkpt lat="42.56518" lon="2.26609">
        <ele>1055</ele>
        <time>2017-05-20T13:26:26Z</time>
      </trkpt>
      <trkpt lat="42.56522" lon="2.266">
        <ele>1054</ele>
        <time>2017-05-20T13:26:40Z</time>
      </trkpt>
      <trkpt lat="42.56526" lon="2.266">
        <ele>1055</ele>
        <time>2017-05-20T13:26:51Z</time>
      </trkpt>
      <trkpt lat="42.56528" lon="2.26602">
        <ele>1056</ele>
        <time>2017-05-20T13:27:04Z</time>
      </trkpt>
      <trkpt lat="42.5653" lon="2.26594">
        <ele>1055</ele>
        <time>2017-05-20T13:27:16Z</time>
      </trkpt>
      <trkpt lat="42.56536" lon="2.26596">
        <ele>1057</ele>
        <time>2017-05-20T13:27:30Z</time>
      </trkpt>
      <trkpt lat="42.56537" lon="2.26593">
        <ele>1056</ele>
        <time>2017-05-20T13:27:43Z</time>
      </trkpt>
      <trkpt lat="42.56535" lon="2.26589">
        <ele>1055</ele>
        <time>2017-05-20T13:28:01Z</time>
      </trkpt>
      <trkpt lat="42.56536" lon="2.26588">
        <ele>1055</ele>
        <time>2017-05-20T13:28:15Z</time>
      </trkpt>
      <trkpt lat="42.56536" lon="2.26587">
        <ele>1055</ele>
        <time>2017-05-20T13:28:32Z</time>
      </trkpt>
      <trkpt lat="42.56539" lon="2.26592">
        <ele>1057</ele>
        <time>2017-05-20T13:28:43Z</time>
      </trkpt>
      <trkpt lat="42.56539" lon="2.2659">
        <ele>1056</ele>
        <time>2017-05-20T13:28:53Z</time>
      </trkpt>
      <trkpt lat="42.56538" lon="2.26589">
        <ele>1056</ele>
        <time>2017-05-20T13:29:02Z</time>
      </trkpt>
      <trkpt lat="42.5654" lon="2.26581">
        <ele>1055</ele>
        <time>2017-05-20T13:29:15Z</time>
      </trkpt>
      <trkpt lat="42.56541" lon="2.2658">
        <ele>1055</ele>
        <time>2017-05-20T13:29:25Z</time>
      </trkpt>
      <trkpt lat="42.56549" lon="2.26579">
        <ele>1057</ele>
        <time>2017-05-20T13:29:40Z</time>
      </trkpt>
      <trkpt lat="42.56555" lon="2.2658">
        <ele>1058</ele>
        <time>2017-05-20T13:29:51Z</time>
      </trkpt>
      <trkpt lat="42.56567" lon="2.26573">
        <ele>1060</ele>
        <time>2017-05-20T13:30:05Z</time>
      </trkpt>
      <trkpt lat="42.56575" lon="2.26566">
        <ele>1061</ele>
        <time>2017-05-20T13:30:18Z</time>
      </trkpt>
      <trkpt lat="42.56582" lon="2.26565">
        <ele>1062</ele>
        <time>2017-05-20T13:30:23Z</time>
      </trkpt>
      <trkpt lat="42.56585" lon="2.26562">
        <ele>1062</ele>
        <time>2017-05-20T13:30:32Z</time>
      </trkpt>
      <trkpt lat="42.56586" lon="2.26563">
        <ele>1063</ele>
        <time>2017-05-20T13:30:42Z</time>
      </trkpt>
      <trkpt lat="42.56591" lon="2.26565">
        <ele>1064</ele>
        <time>2017-05-20T13:30:52Z</time>
      </trkpt>
      <trkpt lat="42.56601" lon="2.26559">
        <ele>1066</ele>
        <time>2017-05-20T13:31:00Z</time>
      </trkpt>
      <trkpt lat="42.56598" lon="2.26565">
        <ele>1066</ele>
        <time>2017-05-20T13:31:09Z</time>
      </trkpt>
      <trkpt lat="42.56602" lon="2.26564">
        <ele>1067</ele>
        <time>2017-05-20T13:31:20Z</time>
      </trkpt>
      <trkpt lat="42.56607" lon="2.26559">
        <ele>1067</ele>
        <time>2017-05-20T13:31:31Z</time>
      </trkpt>
      <trkpt lat="42.56609" lon="2.26558">
        <ele>1068</ele>
        <time>2017-05-20T13:31:40Z</time>
      </trkpt>
      <trkpt lat="42.56607" lon="2.26563">
        <ele>1068</ele>
        <time>2017-05-20T13:31:54Z</time>
      </trkpt>
      <trkpt lat="42.56601" lon="2.2657">
        <ele>1068</ele>
        <time>2017-05-20T13:32:06Z</time>
      </trkpt>
      <trkpt lat="42.566" lon="2.26574">
        <ele>1068</ele>
        <time>2017-05-20T13:32:14Z</time>
      </trkpt>
      <trkpt lat="42.56594" lon="2.26581">
        <ele>1068</ele>
        <time>2017-05-20T13:32:27Z</time>
      </trkpt>
      <trkpt lat="42.56591" lon="2.26591">
        <ele>1069</ele>
        <time>2017-05-20T13:32:41Z</time>
      </trkpt>
      <trkpt lat="42.56586" lon="2.26597">
        <ele>1069</ele>
        <time>2017-05-20T13:32:54Z</time>
      </trkpt>
      <trkpt lat="42.56577" lon="2.26611">
        <ele>1069</ele>
        <time>2017-05-20T13:33:11Z</time>
      </trkpt>
      <trkpt lat="42.56573" lon="2.26619">
        <ele>1068</ele>
        <time>2017-05-20T13:33:24Z</time>
      </trkpt>
      <trkpt lat="42.56576" lon="2.2663">
        <ele>1070</ele>
        <time>2017-05-20T13:33:36Z</time>
      </trkpt>
      <trkpt lat="42.56582" lon="2.26638">
        <ele>1072</ele>
        <time>2017-05-20T13:33:52Z</time>
      </trkpt>
      <trkpt lat="42.56582" lon="2.26641">
        <ele>1072</ele>
        <time>2017-05-20T13:34:10Z</time>
      </trkpt>
      <trkpt lat="42.56582" lon="2.26643">
        <ele>1072</ele>
        <time>2017-05-20T13:34:28Z</time>
      </trkpt>
      <trkpt lat="42.56583" lon="2.26645">
        <ele>1073</ele>
        <time>2017-05-20T13:34:42Z</time>
      </trkpt>
      <trkpt lat="42.56584" lon="2.26644">
        <ele>1073</ele>
        <time>2017-05-20T13:34:59Z</time>
      </trkpt>
      <trkpt lat="42.56584" lon="2.26644">
        <ele>1073</ele>
        <time>2017-05-20T13:35:15Z</time>
      </trkpt>
      <trkpt lat="42.56585" lon="2.26645">
        <ele>1073</ele>
        <time>2017-05-20T13:35:31Z</time>
      </trkpt>
      <trkpt lat="42.56586" lon="2.26647">
        <ele>1074</ele>
        <time>2017-05-20T13:35:49Z</time>
      </trkpt>
      <trkpt lat="42.56584" lon="2.26648">
        <ele>1073</ele>
        <time>2017-05-20T13:36:04Z</time>
      </trkpt>
      <trkpt lat="42.56584" lon="2.26648">
        <ele>1073</ele>
        <time>2017-05-20T13:36:24Z</time>
      </trkpt>
      <trkpt lat="42.56585" lon="2.26647">
        <ele>1073</ele>
        <time>2017-05-20T13:36:38Z</time>
      </trkpt>
      <trkpt lat="42.56586" lon="2.26647">
        <ele>1074</ele>
        <time>2017-05-20T13:36:55Z</time>
      </trkpt>
      <trkpt lat="42.5659" lon="2.26649">
        <ele>1075</ele>
        <time>2017-05-20T13:37:07Z</time>
      </trkpt>
      <trkpt lat="42.56593" lon="2.26649">
        <ele>1076</ele>
        <time>2017-05-20T13:37:18Z</time>
      </trkpt>
      <trkpt lat="42.56592" lon="2.26647">
        <ele>1075</ele>
        <time>2017-05-20T13:37:32Z</time>
      </trkpt>
      <trkpt lat="42.56593" lon="2.26648">
        <ele>1076</ele>
        <time>2017-05-20T13:37:48Z</time>
      </trkpt>
      <trkpt lat="42.56598" lon="2.26646">
        <ele>1077</ele>
        <time>2017-05-20T13:38:01Z</time>
      </trkpt>
      <trkpt lat="42.56603" lon="2.26642">
        <ele>1078</ele>
        <time>2017-05-20T13:38:13Z</time>
      </trkpt>
      <trkpt lat="42.56606" lon="2.26641">
        <ele>1079</ele>
        <time>2017-05-20T13:38:26Z</time>
      </trkpt>
      <trkpt lat="42.56608" lon="2.26641">
        <ele>1079</ele>
        <time>2017-05-20T13:38:38Z</time>
      </trkpt>
      <trkpt lat="42.56612" lon="2.26639">
        <ele>1080</ele>
        <time>2017-05-20T13:38:53Z</time>
      </trkpt>
      <trkpt lat="42.56616" lon="2.26637">
        <ele>1081</ele>
        <time>2017-05-20T13:39:07Z</time>
      </trkpt>
      <trkpt lat="42.56619" lon="2.26635">
        <ele>1082</ele>
        <time>2017-05-20T13:39:20Z</time>
      </trkpt>
      <trkpt lat="42.5662" lon="2.26633">
        <ele>1082</ele>
        <time>2017-05-20T13:39:29Z</time>
      </trkpt>
      <trkpt lat="42.56621" lon="2.26632">
        <ele>1083</ele>
        <time>2017-05-20T13:39:42Z</time>
      </trkpt>
      <trkpt lat="42.56621" lon="2.2663">
        <ele>1082</ele>
        <time>2017-05-20T13:39:59Z</time>
      </trkpt>
      <trkpt lat="42.56623" lon="2.26628">
        <ele>1083</ele>
        <time>2017-05-20T13:40:14Z</time>
      </trkpt>
      <trkpt lat="42.56627" lon="2.26626">
        <ele>1084</ele>
        <time>2017-05-20T13:40:23Z</time>
      </trkpt>
      <trkpt lat="42.56632" lon="2.26621">
        <ele>1085</ele>
        <time>2017-05-20T13:40:35Z</time>
      </trkpt>
      <trkpt lat="42.56641" lon="2.2661">
        <ele>1086</ele>
        <time>2017-05-20T13:40:52Z</time>
      </trkpt>
      <trkpt lat="42.56648" lon="2.26604">
        <ele>1087</ele>
        <time>2017-05-20T13:41:02Z</time>
      </trkpt>
      <trkpt lat="42.56654" lon="2.26598">
        <ele>1087</ele>
        <time>2017-05-20T13:41:12Z</time>
      </trkpt>
      <trkpt lat="42.56659" lon="2.26591">
        <ele>1087</ele>
        <time>2017-05-20T13:41:23Z</time>
      </trkpt>
      <trkpt lat="42.56665" lon="2.26583">
        <ele>1086</ele>
        <time>2017-05-20T13:41:36Z</time>
      </trkpt>
      <trkpt lat="42.56669" lon="2.26584">
        <ele>1087</ele>
        <time>2017-05-20T13:41:50Z</time>
      </trkpt>
      <trkpt lat="42.56678" lon="2.26581">
        <ele>1089</ele>
        <time>2017-05-20T13:42:05Z</time>
      </trkpt>
      <trkpt lat="42.56685" lon="2.26581">
        <ele>1091</ele>
        <time>2017-05-20T13:42:19Z</time>
      </trkpt>
      <trkpt lat="42.56687" lon="2.26581">
        <ele>1091</ele>
        <time>2017-05-20T13:42:34Z</time>
      </trkpt>
      <trkpt lat="42.5669" lon="2.2658">
        <ele>1092</ele>
        <time>2017-05-20T13:42:55Z</time>
      </trkpt>
      <trkpt lat="42.56697" lon="2.26579">
        <ele>1093</ele>
        <time>2017-05-20T13:43:10Z</time>
      </trkpt>
      <trkpt lat="42.56701" lon="2.26576">
        <ele>1093</ele>
        <time>2017-05-20T13:43:23Z</time>
      </trkpt>
      <trkpt lat="42.56709" lon="2.26572">
        <ele>1094</ele>
        <time>2017-05-20T13:43:37Z</time>
      </trkpt>
      <trkpt lat="42.56714" lon="2.26573">
        <ele>1095</ele>
        <time>2017-05-20T13:43:48Z</time>
      </trkpt>
      <trkpt lat="42.56721" lon="2.26571">
        <ele>1096</ele>
        <time>2017-05-20T13:44:02Z</time>
      </trkpt>
      <trkpt lat="42.56728" lon="2.26575">
        <ele>1098</ele>
        <time>2017-05-20T13:44:15Z</time>
      </trkpt>
      <trkpt lat="42.56738" lon="2.26576">
        <ele>1100</ele>
        <time>2017-05-20T13:44:31Z</time>
      </trkpt>
      <trkpt lat="42.56745" lon="2.26577">
        <ele>1101</ele>
        <time>2017-05-20T13:44:44Z</time>
      </trkpt>
      <trkpt lat="42.56746" lon="2.26579">
        <ele>1101</ele>
        <time>2017-05-20T13:44:59Z</time>
      </trkpt>
      <trkpt lat="42.56752" lon="2.26582">
        <ele>1102</ele>
        <time>2017-05-20T13:45:14Z</time>
      </trkpt>
      <trkpt lat="42.56753" lon="2.26584">
        <ele>1103</ele>
        <time>2017-05-20T13:45:31Z</time>
      </trkpt>
      <trkpt lat="42.56753" lon="2.26587">
        <ele>1104</ele>
        <time>2017-05-20T13:45:44Z</time>
      </trkpt>
      <trkpt lat="42.56756" lon="2.2659">
        <ele>1104</ele>
        <time>2017-05-20T13:45:55Z</time>
      </trkpt>
      <trkpt lat="42.56755" lon="2.26592">
        <ele>1105</ele>
        <time>2017-05-20T13:46:12Z</time>
      </trkpt>
      <trkpt lat="42.56755" lon="2.26594">
        <ele>1105</ele>
        <time>2017-05-20T13:46:27Z</time>
      </trkpt>
      <trkpt lat="42.56755" lon="2.26595">
        <ele>1105</ele>
        <time>2017-05-20T13:46:41Z</time>
      </trkpt>
      <trkpt lat="42.56754" lon="2.26597">
        <ele>1106</ele>
        <time>2017-05-20T13:46:52Z</time>
      </trkpt>
      <trkpt lat="42.56755" lon="2.26601">
        <ele>1106</ele>
        <time>2017-05-20T13:47:06Z</time>
      </trkpt>
      <trkpt lat="42.56755" lon="2.26609">
        <ele>1108</ele>
        <time>2017-05-20T13:47:22Z</time>
      </trkpt>
      <trkpt lat="42.56757" lon="2.26619">
        <ele>1111</ele>
        <time>2017-05-20T13:47:37Z</time>
      </trkpt>
      <trkpt lat="42.56759" lon="2.26622">
        <ele>1112</ele>
        <time>2017-05-20T13:47:50Z</time>
      </trkpt>
      <trkpt lat="42.5676" lon="2.2663">
        <ele>1114</ele>
        <time>2017-05-20T13:48:07Z</time>
      </trkpt>
      <trkpt lat="42.5676" lon="2.26636">
        <ele>1115</ele>
        <time>2017-05-20T13:48:24Z</time>
      </trkpt>
      <trkpt lat="42.56757" lon="2.26647">
        <ele>1117</ele>
        <time>2017-05-20T13:48:37Z</time>
      </trkpt>
      <trkpt lat="42.56766" lon="2.26647">
        <ele>1118</ele>
        <time>2017-05-20T13:48:49Z</time>
      </trkpt>
      <trkpt lat="42.56763" lon="2.26648">
        <ele>1119</ele>
        <time>2017-05-20T13:49:06Z</time>
      </trkpt>
      <trkpt lat="42.56764" lon="2.26648">
        <ele>1118</ele>
        <time>2017-05-20T13:49:22Z</time>
      </trkpt>
      <trkpt lat="42.56762" lon="2.26648">
        <ele>1118</ele>
        <time>2017-05-20T13:49:42Z</time>
      </trkpt>
      <trkpt lat="42.56759" lon="2.26651">
        <ele>1119</ele>
        <time>2017-05-20T13:49:56Z</time>
      </trkpt>
      <trkpt lat="42.56759" lon="2.26657">
        <ele>1120</ele>
        <time>2017-05-20T13:50:09Z</time>
      </trkpt>
      <trkpt lat="42.56758" lon="2.26663">
        <ele>1122</ele>
        <time>2017-05-20T13:50:24Z</time>
      </trkpt>
      <trkpt lat="42.56761" lon="2.26662">
        <ele>1122</ele>
        <time>2017-05-20T13:50:43Z</time>
      </trkpt>
      <trkpt lat="42.5676" lon="2.26666">
        <ele>1123</ele>
        <time>2017-05-20T13:51:01Z</time>
      </trkpt>
      <trkpt lat="42.56759" lon="2.26668">
        <ele>1123</ele>
        <time>2017-05-20T13:51:15Z</time>
      </trkpt>
      <trkpt lat="42.56759" lon="2.26676">
        <ele>1125</ele>
        <time>2017-05-20T13:51:31Z</time>
      </trkpt>
      <trkpt lat="42.56753" lon="2.26688">
        <ele>1126</ele>
        <time>2017-05-20T13:51:49Z</time>
      </trkpt>
      <trkpt lat="42.56752" lon="2.26694">
        <ele>1127</ele>
        <time>2017-05-20T13:52:03Z</time>
      </trkpt>
      <trkpt lat="42.5675" lon="2.26698">
        <ele>1128</ele>
        <time>2017-05-20T13:52:14Z</time>
      </trkpt>
      <trkpt lat="42.56749" lon="2.26705">
        <ele>1129</ele>
        <time>2017-05-20T13:52:27Z</time>
      </trkpt>
      <trkpt lat="42.56744" lon="2.26717">
        <ele>1130</ele>
        <time>2017-05-20T13:52:44Z</time>
      </trkpt>
      <trkpt lat="42.56743" lon="2.26721">
        <ele>1131</ele>
        <time>2017-05-20T13:52:54Z</time>
      </trkpt>
      <trkpt lat="42.56744" lon="2.26727">
        <ele>1132</ele>
        <time>2017-05-20T13:53:07Z</time>
      </trkpt>
      <trkpt lat="42.56743" lon="2.26735">
        <ele>1134</ele>
        <time>2017-05-20T13:53:20Z</time>
      </trkpt>
      <trkpt lat="42.56744" lon="2.26741">
        <ele>1134</ele>
        <time>2017-05-20T13:53:31Z</time>
      </trkpt>
      <trkpt lat="42.56744" lon="2.26752">
        <ele>1134</ele>
        <time>2017-05-20T13:53:46Z</time>
      </trkpt>
      <trkpt lat="42.56746" lon="2.2676">
        <ele>1135</ele>
        <time>2017-05-20T13:54:01Z</time>
      </trkpt>
      <trkpt lat="42.56745" lon="2.26763">
        <ele>1135</ele>
        <time>2017-05-20T13:54:15Z</time>
      </trkpt>
      <trkpt lat="42.56744" lon="2.26765">
        <ele>1135</ele>
        <time>2017-05-20T13:54:32Z</time>
      </trkpt>
      <trkpt lat="42.56744" lon="2.26765">
        <ele>1135</ele>
        <time>2017-05-20T13:54:34Z</time>
      </trkpt>
      <trkpt lat="42.56745" lon="2.26764">
        <ele>1135</ele>
        <time>2017-05-20T14:03:59Z</time>
      </trkpt>
      <trkpt lat="42.56745" lon="2.26764">
        <ele>1135</ele>
        <time>2017-05-20T14:04:00Z</time>
      </trkpt>
      <trkpt lat="42.56744" lon="2.2676">
        <ele>1135</ele>
        <time>2017-05-20T14:04:18Z</time>
      </trkpt>
      <trkpt lat="42.56744" lon="2.26759">
        <ele>1134</ele>
        <time>2017-05-20T14:04:19Z</time>
      </trkpt>
      <trkpt lat="42.56744" lon="2.26756">
        <ele>1134</ele>
        <time>2017-05-20T14:04:21Z</time>
      </trkpt>
      <trkpt lat="42.5674" lon="2.26739">
        <ele>1133</ele>
        <time>2017-05-20T14:04:34Z</time>
      </trkpt>
      <trkpt lat="42.56742" lon="2.26729">
        <ele>1132</ele>
        <time>2017-05-20T14:04:44Z</time>
      </trkpt>
      <trkpt lat="42.56743" lon="2.26714">
        <ele>1129</ele>
        <time>2017-05-20T14:04:55Z</time>
      </trkpt>
      <trkpt lat="42.56746" lon="2.26702">
        <ele>1128</ele>
        <time>2017-05-20T14:05:07Z</time>
      </trkpt>
      <trkpt lat="42.56748" lon="2.26694">
        <ele>1126</ele>
        <time>2017-05-20T14:05:14Z</time>
      </trkpt>
      <trkpt lat="42.56755" lon="2.2668">
        <ele>1125</ele>
        <time>2017-05-20T14:05:25Z</time>
      </trkpt>
      <trkpt lat="42.56755" lon="2.26669">
        <ele>1123</ele>
        <time>2017-05-20T14:05:37Z</time>
      </trkpt>
      <trkpt lat="42.56757" lon="2.26658">
        <ele>1120</ele>
        <time>2017-05-20T14:05:48Z</time>
      </trkpt>
      <trkpt lat="42.56756" lon="2.26645">
        <ele>1117</ele>
        <time>2017-05-20T14:05:59Z</time>
      </trkpt>
      <trkpt lat="42.56757" lon="2.26628">
        <ele>1113</ele>
        <time>2017-05-20T14:06:09Z</time>
      </trkpt>
      <trkpt lat="42.56756" lon="2.26618">
        <ele>1110</ele>
        <time>2017-05-20T14:06:19Z</time>
      </trkpt>
      <trkpt lat="42.56752" lon="2.26604">
        <ele>1107</ele>
        <time>2017-05-20T14:06:31Z</time>
      </trkpt>
      <trkpt lat="42.56751" lon="2.26605">
        <ele>1107</ele>
        <time>2017-05-20T14:06:44Z</time>
      </trkpt>
      <trkpt lat="42.56753" lon="2.26595">
        <ele>1105</ele>
        <time>2017-05-20T14:06:53Z</time>
      </trkpt>
      <trkpt lat="42.56751" lon="2.26586">
        <ele>1103</ele>
        <time>2017-05-20T14:07:04Z</time>
      </trkpt>
      <trkpt lat="42.56744" lon="2.2658">
        <ele>1101</ele>
        <time>2017-05-20T14:07:15Z</time>
      </trkpt>
      <trkpt lat="42.56739" lon="2.26576">
        <ele>1100</ele>
        <time>2017-05-20T14:07:26Z</time>
      </trkpt>
      <trkpt lat="42.56731" lon="2.26576">
        <ele>1098</ele>
        <time>2017-05-20T14:07:34Z</time>
      </trkpt>
      <trkpt lat="42.56728" lon="2.26575">
        <ele>1098</ele>
        <time>2017-05-20T14:07:38Z</time>
      </trkpt>
      <trkpt lat="42.56716" lon="2.26573">
        <ele>1095</ele>
        <time>2017-05-20T14:07:48Z</time>
      </trkpt>
      <trkpt lat="42.56705" lon="2.26571">
        <ele>1093</ele>
        <time>2017-05-20T14:08:00Z</time>
      </trkpt>
      <trkpt lat="42.56693" lon="2.26573">
        <ele>1091</ele>
        <time>2017-05-20T14:08:12Z</time>
      </trkpt>
      <trkpt lat="42.56684" lon="2.26577">
        <ele>1090</ele>
        <time>2017-05-20T14:08:24Z</time>
      </trkpt>
      <trkpt lat="42.56672" lon="2.2658">
        <ele>1088</ele>
        <time>2017-05-20T14:08:38Z</time>
      </trkpt>
      <trkpt lat="42.56666" lon="2.26584">
        <ele>1087</ele>
        <time>2017-05-20T14:08:46Z</time>
      </trkpt>
      <trkpt lat="42.56657" lon="2.26593">
        <ele>1087</ele>
        <time>2017-05-20T14:08:59Z</time>
      </trkpt>
      <trkpt lat="42.5665" lon="2.26597">
        <ele>1086</ele>
        <time>2017-05-20T14:09:07Z</time>
      </trkpt>
      <trkpt lat="42.56642" lon="2.26603">
        <ele>1085</ele>
        <time>2017-05-20T14:09:16Z</time>
      </trkpt>
      <trkpt lat="42.56637" lon="2.26608">
        <ele>1084</ele>
        <time>2017-05-20T14:09:22Z</time>
      </trkpt>
      <trkpt lat="42.56629" lon="2.26619">
        <ele>1084</ele>
        <time>2017-05-20T14:09:34Z</time>
      </trkpt>
      <trkpt lat="42.56622" lon="2.26624">
        <ele>1082</ele>
        <time>2017-05-20T14:09:44Z</time>
      </trkpt>
      <trkpt lat="42.56616" lon="2.26633">
        <ele>1081</ele>
        <time>2017-05-20T14:09:56Z</time>
      </trkpt>
      <trkpt lat="42.56607" lon="2.26639">
        <ele>1079</ele>
        <time>2017-05-20T14:10:09Z</time>
      </trkpt>
      <trkpt lat="42.56597" lon="2.2664">
        <ele>1076</ele>
        <time>2017-05-20T14:10:20Z</time>
      </trkpt>
      <trkpt lat="42.56593" lon="2.26643">
        <ele>1075</ele>
        <time>2017-05-20T14:10:26Z</time>
      </trkpt>
      <trkpt lat="42.56583" lon="2.26645">
        <ele>1073</ele>
        <time>2017-05-20T14:10:39Z</time>
      </trkpt>
      <trkpt lat="42.56578" lon="2.26641">
        <ele>1071</ele>
        <time>2017-05-20T14:10:46Z</time>
      </trkpt>
      <trkpt lat="42.56576" lon="2.2663">
        <ele>1070</ele>
        <time>2017-05-20T14:10:56Z</time>
      </trkpt>
      <trkpt lat="42.56574" lon="2.26624">
        <ele>1069</ele>
        <time>2017-05-20T14:11:05Z</time>
      </trkpt>
      <trkpt lat="42.56571" lon="2.26614">
        <ele>1067</ele>
        <time>2017-05-20T14:11:15Z</time>
      </trkpt>
      <trkpt lat="42.56573" lon="2.26612">
        <ele>1068</ele>
        <time>2017-05-20T14:11:17Z</time>
      </trkpt>
      <trkpt lat="42.56581" lon="2.26601">
        <ele>1068</ele>
        <time>2017-05-20T14:11:27Z</time>
      </trkpt>
      <trkpt lat="42.56586" lon="2.26594">
        <ele>1068</ele>
        <time>2017-05-20T14:11:35Z</time>
      </trkpt>
      <trkpt lat="42.56588" lon="2.26585">
        <ele>1067</ele>
        <time>2017-05-20T14:11:44Z</time>
      </trkpt>
      <trkpt lat="42.56594" lon="2.26576">
        <ele>1067</ele>
        <time>2017-05-20T14:11:57Z</time>
      </trkpt>
      <trkpt lat="42.566" lon="2.26567">
        <ele>1067</ele>
        <time>2017-05-20T14:12:10Z</time>
      </trkpt>
      <trkpt lat="42.56605" lon="2.26554">
        <ele>1066</ele>
        <time>2017-05-20T14:12:25Z</time>
      </trkpt>
      <trkpt lat="42.56602" lon="2.26557">
        <ele>1066</ele>
        <time>2017-05-20T14:12:35Z</time>
      </trkpt>
      <trkpt lat="42.56598" lon="2.26558">
        <ele>1065</ele>
        <time>2017-05-20T14:12:48Z</time>
      </trkpt>
      <trkpt lat="42.56592" lon="2.26561">
        <ele>1064</ele>
        <time>2017-05-20T14:13:01Z</time>
      </trkpt>
      <trkpt lat="42.56589" lon="2.26563">
        <ele>1063</ele>
        <time>2017-05-20T14:13:06Z</time>
      </trkpt>
      <trkpt lat="42.56579" lon="2.26564">
        <ele>1061</ele>
        <time>2017-05-20T14:13:17Z</time>
      </trkpt>
      <trkpt lat="42.56575" lon="2.26565">
        <ele>1060</ele>
        <time>2017-05-20T14:13:24Z</time>
      </trkpt>
      <trkpt lat="42.56566" lon="2.26572">
        <ele>1059</ele>
        <time>2017-05-20T14:13:36Z</time>
      </trkpt>
      <trkpt lat="42.56557" lon="2.26577">
        <ele>1058</ele>
        <time>2017-05-20T14:13:46Z</time>
      </trkpt>
      <trkpt lat="42.56551" lon="2.26577">
        <ele>1057</ele>
        <time>2017-05-20T14:13:54Z</time>
      </trkpt>
      <trkpt lat="42.56548" lon="2.26576">
        <ele>1056</ele>
        <time>2017-05-20T14:14:04Z</time>
      </trkpt>
      <trkpt lat="42.56545" lon="2.26575">
        <ele>1055</ele>
        <time>2017-05-20T14:14:15Z</time>
      </trkpt>
      <trkpt lat="42.56539" lon="2.26575">
        <ele>1054</ele>
        <time>2017-05-20T14:14:28Z</time>
      </trkpt>
      <trkpt lat="42.56538" lon="2.26582">
        <ele>1055</ele>
        <time>2017-05-20T14:14:42Z</time>
      </trkpt>
      <trkpt lat="42.56536" lon="2.26583">
        <ele>1054</ele>
        <time>2017-05-20T14:14:52Z</time>
      </trkpt>
      <trkpt lat="42.56535" lon="2.26594">
        <ele>1056</ele>
        <time>2017-05-20T14:15:04Z</time>
      </trkpt>
      <trkpt lat="42.56527" lon="2.26592">
        <ele>1054</ele>
        <time>2017-05-20T14:15:16Z</time>
      </trkpt>
      <trkpt lat="42.56522" lon="2.26598">
        <ele>1054</ele>
        <time>2017-05-20T14:15:28Z</time>
      </trkpt>
      <trkpt lat="42.56517" lon="2.26603">
        <ele>1053</ele>
        <time>2017-05-20T14:15:38Z</time>
      </trkpt>
      <trkpt lat="42.56509" lon="2.26608">
        <ele>1052</ele>
        <time>2017-05-20T14:15:48Z</time>
      </trkpt>
      <trkpt lat="42.56502" lon="2.26613">
        <ele>1051</ele>
        <time>2017-05-20T14:15:57Z</time>
      </trkpt>
      <trkpt lat="42.56492" lon="2.26619">
        <ele>1049</ele>
        <time>2017-05-20T14:16:12Z</time>
      </trkpt>
      <trkpt lat="42.56486" lon="2.26613">
        <ele>1047</ele>
        <time>2017-05-20T14:16:21Z</time>
      </trkpt>
      <trkpt lat="42.56478" lon="2.26612">
        <ele>1045</ele>
        <time>2017-05-20T14:16:32Z</time>
      </trkpt>
      <trkpt lat="42.56472" lon="2.26616">
        <ele>1044</ele>
        <time>2017-05-20T14:16:43Z</time>
      </trkpt>
      <trkpt lat="42.56467" lon="2.26618">
        <ele>1042</ele>
        <time>2017-05-20T14:16:57Z</time>
      </trkpt>
      <trkpt lat="42.56464" lon="2.26614">
        <ele>1041</ele>
        <time>2017-05-20T14:17:08Z</time>
      </trkpt>
      <trkpt lat="42.56464" lon="2.26605">
        <ele>1040</ele>
        <time>2017-05-20T14:17:21Z</time>
      </trkpt>
      <trkpt lat="42.56463" lon="2.26597">
        <ele>1039</ele>
        <time>2017-05-20T14:17:35Z</time>
      </trkpt>
      <trkpt lat="42.56461" lon="2.26589">
        <ele>1037</ele>
        <time>2017-05-20T14:17:50Z</time>
      </trkpt>
      <trkpt lat="42.56461" lon="2.26588">
        <ele>1037</ele>
        <time>2017-05-20T14:18:03Z</time>
      </trkpt>
      <trkpt lat="42.56461" lon="2.26582">
        <ele>1037</ele>
        <time>2017-05-20T14:18:15Z</time>
      </trkpt>
      <trkpt lat="42.56456" lon="2.26574">
        <ele>1034</ele>
        <time>2017-05-20T14:18:25Z</time>
      </trkpt>
      <trkpt lat="42.56454" lon="2.26565">
        <ele>1033</ele>
        <time>2017-05-20T14:18:36Z</time>
      </trkpt>
      <trkpt lat="42.5645" lon="2.2656">
        <ele>1031</ele>
        <time>2017-05-20T14:18:49Z</time>
      </trkpt>
      <trkpt lat="42.56444" lon="2.26558">
        <ele>1030</ele>
        <time>2017-05-20T14:19:03Z</time>
      </trkpt>
      <trkpt lat="42.5644" lon="2.26552">
        <ele>1028</ele>
        <time>2017-05-20T14:19:15Z</time>
      </trkpt>
      <trkpt lat="42.56434" lon="2.26548">
        <ele>1026</ele>
        <time>2017-05-20T14:19:27Z</time>
      </trkpt>
      <trkpt lat="42.56427" lon="2.26546">
        <ele>1024</ele>
        <time>2017-05-20T14:19:38Z</time>
      </trkpt>
      <trkpt lat="42.56424" lon="2.26543">
        <ele>1022</ele>
        <time>2017-05-20T14:19:47Z</time>
      </trkpt>
      <trkpt lat="42.56422" lon="2.2654">
        <ele>1021</ele>
        <time>2017-05-20T14:20:02Z</time>
      </trkpt>
      <trkpt lat="42.56415" lon="2.26534">
        <ele>1019</ele>
        <time>2017-05-20T14:20:15Z</time>
      </trkpt>
      <trkpt lat="42.56412" lon="2.2653">
        <ele>1017</ele>
        <time>2017-05-20T14:20:19Z</time>
      </trkpt>
      <trkpt lat="42.56405" lon="2.26524">
        <ele>1015</ele>
        <time>2017-05-20T14:20:28Z</time>
      </trkpt>
      <trkpt lat="42.56399" lon="2.26525">
        <ele>1013</ele>
        <time>2017-05-20T14:20:38Z</time>
      </trkpt>
      <trkpt lat="42.56398" lon="2.26525">
        <ele>1013</ele>
        <time>2017-05-20T14:20:39Z</time>
      </trkpt>
      <trkpt lat="42.56389" lon="2.26522">
        <ele>1011</ele>
        <time>2017-05-20T14:20:49Z</time>
      </trkpt>
      <trkpt lat="42.56383" lon="2.26524">
        <ele>1010</ele>
        <time>2017-05-20T14:20:56Z</time>
      </trkpt>
      <trkpt lat="42.56378" lon="2.26526">
        <ele>1009</ele>
        <time>2017-05-20T14:21:01Z</time>
      </trkpt>
      <trkpt lat="42.56369" lon="2.26537">
        <ele>1009</ele>
        <time>2017-05-20T14:21:12Z</time>
      </trkpt>
      <trkpt lat="42.56362" lon="2.26538">
        <ele>1008</ele>
        <time>2017-05-20T14:21:20Z</time>
      </trkpt>
      <trkpt lat="42.56352" lon="2.2654">
        <ele>1006</ele>
        <time>2017-05-20T14:21:31Z</time>
      </trkpt>
      <trkpt lat="42.56348" lon="2.26543">
        <ele>1006</ele>
        <time>2017-05-20T14:21:40Z</time>
      </trkpt>
      <trkpt lat="42.56348" lon="2.26542">
        <ele>1006</ele>
        <time>2017-05-20T14:21:50Z</time>
      </trkpt>
      <trkpt lat="42.56342" lon="2.26543">
        <ele>1005</ele>
        <time>2017-05-20T14:21:59Z</time>
      </trkpt>
      <trkpt lat="42.56336" lon="2.26543">
        <ele>1003</ele>
        <time>2017-05-20T14:22:09Z</time>
      </trkpt>
      <trkpt lat="42.5633" lon="2.26544">
        <ele>1001</ele>
        <time>2017-05-20T14:22:17Z</time>
      </trkpt>
      <trkpt lat="42.56324" lon="2.2655">
        <ele>1000</ele>
        <time>2017-05-20T14:22:29Z</time>
      </trkpt>
      <trkpt lat="42.56318" lon="2.26553">
        <ele>998</ele>
        <time>2017-05-20T14:22:40Z</time>
      </trkpt>
      <trkpt lat="42.56312" lon="2.26552">
        <ele>996</ele>
        <time>2017-05-20T14:22:51Z</time>
      </trkpt>
      <trkpt lat="42.56303" lon="2.26548">
        <ele>993</ele>
        <time>2017-05-20T14:23:04Z</time>
      </trkpt>
      <trkpt lat="42.56301" lon="2.26545">
        <ele>992</ele>
        <time>2017-05-20T14:23:13Z</time>
      </trkpt>
      <trkpt lat="42.56297" lon="2.26542">
        <ele>990</ele>
        <time>2017-05-20T14:23:22Z</time>
      </trkpt>
      <trkpt lat="42.56292" lon="2.26537">
        <ele>988</ele>
        <time>2017-05-20T14:23:31Z</time>
      </trkpt>
      <trkpt lat="42.5629" lon="2.26533">
        <ele>986</ele>
        <time>2017-05-20T14:23:35Z</time>
      </trkpt>
      <trkpt lat="42.56287" lon="2.26529">
        <ele>985</ele>
        <time>2017-05-20T14:23:40Z</time>
      </trkpt>
      <trkpt lat="42.56284" lon="2.26521">
        <ele>983</ele>
        <time>2017-05-20T14:23:49Z</time>
      </trkpt>
      <trkpt lat="42.56285" lon="2.2651">
        <ele>982</ele>
        <time>2017-05-20T14:24:01Z</time>
      </trkpt>
      <trkpt lat="42.56279" lon="2.26501">
        <ele>979</ele>
        <time>2017-05-20T14:24:12Z</time>
      </trkpt>
      <trkpt lat="42.56273" lon="2.26501">
        <ele>977</ele>
        <time>2017-05-20T14:24:22Z</time>
      </trkpt>
      <trkpt lat="42.56265" lon="2.26503">
        <ele>975</ele>
        <time>2017-05-20T14:24:33Z</time>
      </trkpt>
      <trkpt lat="42.56255" lon="2.26503">
        <ele>972</ele>
        <time>2017-05-20T14:24:46Z</time>
      </trkpt>
      <trkpt lat="42.56248" lon="2.26501">
        <ele>970</ele>
        <time>2017-05-20T14:24:56Z</time>
      </trkpt>
      <trkpt lat="42.56245" lon="2.26497">
        <ele>969</ele>
        <time>2017-05-20T14:25:06Z</time>
      </trkpt>
      <trkpt lat="42.56244" lon="2.26491">
        <ele>968</ele>
        <time>2017-05-20T14:25:18Z</time>
      </trkpt>
      <trkpt lat="42.5624" lon="2.26486">
        <ele>966</ele>
        <time>2017-05-20T14:25:28Z</time>
      </trkpt>
      <trkpt lat="42.56239" lon="2.26484">
        <ele>965</ele>
        <time>2017-05-20T14:25:38Z</time>
      </trkpt>
      <trkpt lat="42.56233" lon="2.26482">
        <ele>964</ele>
        <time>2017-05-20T14:25:50Z</time>
      </trkpt>
      <trkpt lat="42.56223" lon="2.26483">
        <ele>962</ele>
        <time>2017-05-20T14:26:04Z</time>
      </trkpt>
      <trkpt lat="42.56217" lon="2.26483">
        <ele>960</ele>
        <time>2017-05-20T14:26:15Z</time>
      </trkpt>
      <trkpt lat="42.56209" lon="2.26483">
        <ele>959</ele>
        <time>2017-05-20T14:26:28Z</time>
      </trkpt>
      <trkpt lat="42.56206" lon="2.26482">
        <ele>957</ele>
        <time>2017-05-20T14:26:44Z</time>
      </trkpt>
      <trkpt lat="42.56198" lon="2.26483">
        <ele>956</ele>
        <time>2017-05-20T14:26:57Z</time>
      </trkpt>
      <trkpt lat="42.5619" lon="2.26479">
        <ele>953</ele>
        <time>2017-05-20T14:27:08Z</time>
      </trkpt>
      <trkpt lat="42.56182" lon="2.26475">
        <ele>950</ele>
        <time>2017-05-20T14:27:17Z</time>
      </trkpt>
      <trkpt lat="42.56172" lon="2.26471">
        <ele>947</ele>
        <time>2017-05-20T14:27:27Z</time>
      </trkpt>
      <trkpt lat="42.56164" lon="2.26472">
        <ele>946</ele>
        <time>2017-05-20T14:27:38Z</time>
      </trkpt>
      <trkpt lat="42.56162" lon="2.2647">
        <ele>945</ele>
        <time>2017-05-20T14:27:49Z</time>
      </trkpt>
      <trkpt lat="42.56163" lon="2.26469">
        <ele>945</ele>
        <time>2017-05-20T14:28:02Z</time>
      </trkpt>
      <trkpt lat="42.56159" lon="2.26466">
        <ele>944</ele>
        <time>2017-05-20T14:28:14Z</time>
      </trkpt>
      <trkpt lat="42.56157" lon="2.26464">
        <ele>943</ele>
        <time>2017-05-20T14:28:26Z</time>
      </trkpt>
      <trkpt lat="42.56162" lon="2.26452">
        <ele>943</ele>
        <time>2017-05-20T14:28:36Z</time>
      </trkpt>
      <trkpt lat="42.56166" lon="2.26442">
        <ele>943</ele>
        <time>2017-05-20T14:28:47Z</time>
      </trkpt>
      <trkpt lat="42.56172" lon="2.26432">
        <ele>942</ele>
        <time>2017-05-20T14:28:56Z</time>
      </trkpt>
      <trkpt lat="42.5618" lon="2.26423">
        <ele>941</ele>
        <time>2017-05-20T14:29:07Z</time>
      </trkpt>
      <trkpt lat="42.56189" lon="2.26418">
        <ele>940</ele>
        <time>2017-05-20T14:29:19Z</time>
      </trkpt>
      <trkpt lat="42.56199" lon="2.26412">
        <ele>939</ele>
        <time>2017-05-20T14:29:29Z</time>
      </trkpt>
      <trkpt lat="42.5621" lon="2.26404">
        <ele>937</ele>
        <time>2017-05-20T14:29:40Z</time>
      </trkpt>
      <trkpt lat="42.56218" lon="2.264">
        <ele>938</ele>
        <time>2017-05-20T14:29:50Z</time>
      </trkpt>
      <trkpt lat="42.56228" lon="2.26393">
        <ele>937</ele>
        <time>2017-05-20T14:30:01Z</time>
      </trkpt>
      <trkpt lat="42.56236" lon="2.26385">
        <ele>936</ele>
        <time>2017-05-20T14:30:13Z</time>
      </trkpt>
      <trkpt lat="42.56247" lon="2.26375">
        <ele>935</ele>
        <time>2017-05-20T14:30:29Z</time>
      </trkpt>
      <trkpt lat="42.56256" lon="2.2637">
        <ele>935</ele>
        <time>2017-05-20T14:30:41Z</time>
      </trkpt>
      <trkpt lat="42.56263" lon="2.26365">
        <ele>935</ele>
        <time>2017-05-20T14:30:51Z</time>
      </trkpt>
      <trkpt lat="42.56274" lon="2.26362">
        <ele>936</ele>
        <time>2017-05-20T14:31:03Z</time>
      </trkpt>
      <trkpt lat="42.56286" lon="2.26361">
        <ele>938</ele>
        <time>2017-05-20T14:31:15Z</time>
      </trkpt>
      <trkpt lat="42.56292" lon="2.26357">
        <ele>938</ele>
        <time>2017-05-20T14:31:24Z</time>
      </trkpt>
      <trkpt lat="42.56299" lon="2.26355">
        <ele>938</ele>
        <time>2017-05-20T14:31:35Z</time>
      </trkpt>
      <trkpt lat="42.56303" lon="2.26352">
        <ele>938</ele>
        <time>2017-05-20T14:31:48Z</time>
      </trkpt>
      <trkpt lat="42.56309" lon="2.26346">
        <ele>937</ele>
        <time>2017-05-20T14:32:01Z</time>
      </trkpt>
      <trkpt lat="42.56315" lon="2.26343">
        <ele>936</ele>
        <time>2017-05-20T14:32:11Z</time>
      </trkpt>
      <trkpt lat="42.56322" lon="2.26339">
        <ele>936</ele>
        <time>2017-05-20T14:32:21Z</time>
      </trkpt>
      <trkpt lat="42.56328" lon="2.26336">
        <ele>935</ele>
        <time>2017-05-20T14:32:33Z</time>
      </trkpt>
      <trkpt lat="42.56335" lon="2.26333">
        <ele>935</ele>
        <time>2017-05-20T14:32:45Z</time>
      </trkpt>
      <trkpt lat="42.56341" lon="2.26328">
        <ele>934</ele>
        <time>2017-05-20T14:32:56Z</time>
      </trkpt>
      <trkpt lat="42.56345" lon="2.26327">
        <ele>934</ele>
        <time>2017-05-20T14:33:01Z</time>
      </trkpt>
      <trkpt lat="42.56348" lon="2.26326">
        <ele>934</ele>
        <time>2017-05-20T14:33:04Z</time>
      </trkpt>
      <trkpt lat="42.5635" lon="2.26321">
        <ele>932</ele>
      </trkpt>
      <trkpt lat="42.56357" lon="2.26324">
        <ele>935</ele>
        <time>2017-05-20T14:33:19Z</time>
      </trkpt>
      <trkpt lat="42.56365" lon="2.26324">
        <ele>936</ele>
        <time>2017-05-20T14:33:30Z</time>
      </trkpt>
      <trkpt lat="42.56374" lon="2.2632">
        <ele>936</ele>
        <time>2017-05-20T14:33:42Z</time>
      </trkpt>
      <trkpt lat="42.5638" lon="2.26316">
        <ele>935</ele>
        <time>2017-05-20T14:33:53Z</time>
      </trkpt>
      <trkpt lat="42.56388" lon="2.26315">
        <ele>937</ele>
        <time>2017-05-20T14:34:05Z</time>
      </trkpt>
      <trkpt lat="42.56395" lon="2.26311">
        <ele>937</ele>
        <time>2017-05-20T14:34:15Z</time>
      </trkpt>
      <trkpt lat="42.56403" lon="2.263">
        <ele>936</ele>
        <time>2017-05-20T14:34:28Z</time>
      </trkpt>
      <trkpt lat="42.56408" lon="2.26291">
        <ele>934</ele>
        <time>2017-05-20T14:34:39Z</time>
      </trkpt>
      <trkpt lat="42.56416" lon="2.26282">
        <ele>933</ele>
        <time>2017-05-20T14:34:51Z</time>
      </trkpt>
      <trkpt lat="42.56421" lon="2.26273">
        <ele>931</ele>
        <time>2017-05-20T14:35:03Z</time>
      </trkpt>
      <trkpt lat="42.56424" lon="2.2627">
        <ele>932</ele>
        <time>2017-05-20T14:35:13Z</time>
      </trkpt>
      <trkpt lat="42.56431" lon="2.26264">
        <ele>932</ele>
        <time>2017-05-20T14:35:25Z</time>
      </trkpt>
      <trkpt lat="42.56438" lon="2.26256">
        <ele>930</ele>
        <time>2017-05-20T14:35:38Z</time>
      </trkpt>
      <trkpt lat="42.56448" lon="2.26248">
        <ele>930</ele>
        <time>2017-05-20T14:35:52Z</time>
      </trkpt>
      <trkpt lat="42.56455" lon="2.26243">
        <ele>930</ele>
        <time>2017-05-20T14:36:02Z</time>
      </trkpt>
      <trkpt lat="42.56461" lon="2.26238">
        <ele>930</ele>
        <time>2017-05-20T14:36:13Z</time>
      </trkpt>
      <trkpt lat="42.56469" lon="2.26232">
        <ele>930</ele>
        <time>2017-05-20T14:36:26Z</time>
      </trkpt>
      <trkpt lat="42.56477" lon="2.26226">
        <ele>931</ele>
        <time>2017-05-20T14:36:36Z</time>
      </trkpt>
      <trkpt lat="42.56482" lon="2.26213">
        <ele>928</ele>
        <time>2017-05-20T14:36:48Z</time>
      </trkpt>
      <trkpt lat="42.56488" lon="2.26199">
        <ele>926</ele>
        <time>2017-05-20T14:37:01Z</time>
      </trkpt>
      <trkpt lat="42.56493" lon="2.26184">
        <ele>924</ele>
        <time>2017-05-20T14:37:14Z</time>
      </trkpt>
      <trkpt lat="42.56496" lon="2.26172">
        <ele>922</ele>
        <time>2017-05-20T14:37:26Z</time>
      </trkpt>
      <trkpt lat="42.565" lon="2.26161">
        <ele>921</ele>
        <time>2017-05-20T14:37:38Z</time>
      </trkpt>
      <trkpt lat="42.56505" lon="2.26143">
        <ele>919</ele>
        <time>2017-05-20T14:37:52Z</time>
      </trkpt>
      <trkpt lat="42.5651" lon="2.26131">
        <ele>918</ele>
        <time>2017-05-20T14:38:05Z</time>
      </trkpt>
      <trkpt lat="42.56514" lon="2.2612">
        <ele>916</ele>
        <time>2017-05-20T14:38:16Z</time>
      </trkpt>
      <trkpt lat="42.5652" lon="2.2611">
        <ele>915</ele>
        <time>2017-05-20T14:38:28Z</time>
      </trkpt>
      <trkpt lat="42.56526" lon="2.261">
        <ele>912</ele>
        <time>2017-05-20T14:38:36Z</time>
      </trkpt>
      <trkpt lat="42.56532" lon="2.26095">
        <ele>911</ele>
        <time>2017-05-20T14:38:45Z</time>
      </trkpt>
      <trkpt lat="42.5654" lon="2.26091">
        <ele>911</ele>
        <time>2017-05-20T14:38:57Z</time>
      </trkpt>
      <trkpt lat="42.56548" lon="2.2609">
        <ele>912</ele>
        <time>2017-05-20T14:39:08Z</time>
      </trkpt>
      <trkpt lat="42.56555" lon="2.26087">
        <ele>912</ele>
        <time>2017-05-20T14:39:17Z</time>
      </trkpt>
      <trkpt lat="42.56564" lon="2.26088">
        <ele>914</ele>
        <time>2017-05-20T14:39:29Z</time>
      </trkpt>
      <trkpt lat="42.56572" lon="2.26084">
        <ele>914</ele>
        <time>2017-05-20T14:39:41Z</time>
      </trkpt>
      <trkpt lat="42.56583" lon="2.2608">
        <ele>913</ele>
        <time>2017-05-20T14:39:53Z</time>
      </trkpt>
      <trkpt lat="42.5659" lon="2.2608">
        <ele>913</ele>
        <time>2017-05-20T14:40:05Z</time>
      </trkpt>
      <trkpt lat="42.56598" lon="2.26072">
        <ele>910</ele>
        <time>2017-05-20T14:40:19Z</time>
      </trkpt>
      <trkpt lat="42.56606" lon="2.26061">
        <ele>907</ele>
        <time>2017-05-20T14:40:32Z</time>
      </trkpt>
      <trkpt lat="42.56612" lon="2.26048">
        <ele>904</ele>
        <time>2017-05-20T14:40:45Z</time>
      </trkpt>
      <trkpt lat="42.56615" lon="2.26035">
        <ele>901</ele>
        <time>2017-05-20T14:40:58Z</time>
      </trkpt>
      <trkpt lat="42.56616" lon="2.26022">
        <ele>898</ele>
        <time>2017-05-20T14:41:12Z</time>
      </trkpt>
      <trkpt lat="42.56616" lon="2.26016">
        <ele>896</ele>
        <time>2017-05-20T14:41:22Z</time>
      </trkpt>
      <trkpt lat="42.56619" lon="2.26006">
        <ele>893</ele>
        <time>2017-05-20T14:41:35Z</time>
      </trkpt>
      <trkpt lat="42.5662" lon="2.26003">
        <ele>893</ele>
        <time>2017-05-20T14:41:51Z</time>
      </trkpt>
      <trkpt lat="42.56625" lon="2.25996">
        <ele>891</ele>
        <time>2017-05-20T14:42:07Z</time>
      </trkpt>
      <trkpt lat="42.56624" lon="2.25993">
        <ele>890</ele>
        <time>2017-05-20T14:42:19Z</time>
      </trkpt>
      <trkpt lat="42.56624" lon="2.25992">
        <ele>890</ele>
        <time>2017-05-20T14:42:31Z</time>
      </trkpt>
      <trkpt lat="42.56626" lon="2.25987">
        <ele>889</ele>
        <time>2017-05-20T14:42:43Z</time>
      </trkpt>
      <trkpt lat="42.56633" lon="2.25984">
        <ele>889</ele>
        <time>2017-05-20T14:42:55Z</time>
      </trkpt>
      <trkpt lat="42.56636" lon="2.25978">
        <ele>888</ele>
        <time>2017-05-20T14:43:07Z</time>
      </trkpt>
      <trkpt lat="42.56644" lon="2.2597">
        <ele>887</ele>
        <time>2017-05-20T14:43:23Z</time>
      </trkpt>
      <trkpt lat="42.5665" lon="2.25961">
        <ele>886</ele>
        <time>2017-05-20T14:43:36Z</time>
      </trkpt>
      <trkpt lat="42.56655" lon="2.25953">
        <ele>884</ele>
        <time>2017-05-20T14:43:47Z</time>
      </trkpt>
      <trkpt lat="42.56661" lon="2.25939">
        <ele>882</ele>
        <time>2017-05-20T14:44:02Z</time>
      </trkpt>
      <trkpt lat="42.56666" lon="2.25924">
        <ele>879</ele>
        <time>2017-05-20T14:44:15Z</time>
      </trkpt>
      <trkpt lat="42.56672" lon="2.25907">
        <ele>876</ele>
        <time>2017-05-20T14:44:28Z</time>
      </trkpt>
      <trkpt lat="42.56673" lon="2.25903">
        <ele>875</ele>
        <time>2017-05-20T14:44:37Z</time>
      </trkpt>
      <trkpt lat="42.56676" lon="2.25894">
        <ele>873</ele>
        <time>2017-05-20T14:44:48Z</time>
      </trkpt>
      <trkpt lat="42.56681" lon="2.2588">
        <ele>871</ele>
        <time>2017-05-20T14:45:05Z</time>
      </trkpt>
      <trkpt lat="42.56681" lon="2.25874">
        <ele>869</ele>
        <time>2017-05-20T14:45:16Z</time>
      </trkpt>
      <trkpt lat="42.56681" lon="2.25866">
        <ele>867</ele>
        <time>2017-05-20T14:45:29Z</time>
      </trkpt>
      <trkpt lat="42.56687" lon="2.25859">
        <ele>866</ele>
        <time>2017-05-20T14:45:45Z</time>
      </trkpt>
      <trkpt lat="42.56683" lon="2.25855">
        <ele>863</ele>
        <time>2017-05-20T14:45:58Z</time>
      </trkpt>
      <trkpt lat="42.56684" lon="2.25852">
        <ele>863</ele>
        <time>2017-05-20T14:46:13Z</time>
      </trkpt>
      <trkpt lat="42.56688" lon="2.25845">
        <ele>862</ele>
        <time>2017-05-20T14:46:27Z</time>
      </trkpt>
      <trkpt lat="42.56692" lon="2.25837">
        <ele>861</ele>
        <time>2017-05-20T14:46:40Z</time>
      </trkpt>
      <trkpt lat="42.56693" lon="2.2583">
        <ele>859</ele>
        <time>2017-05-20T14:46:51Z</time>
      </trkpt>
      <trkpt lat="42.56694" lon="2.25821">
        <ele>856</ele>
        <time>2017-05-20T14:47:06Z</time>
      </trkpt>
      <trkpt lat="42.56698" lon="2.25815">
        <ele>855</ele>
        <time>2017-05-20T14:47:21Z</time>
      </trkpt>
      <trkpt lat="42.56702" lon="2.25804">
        <ele>853</ele>
        <time>2017-05-20T14:47:34Z</time>
      </trkpt>
      <trkpt lat="42.56703" lon="2.25787">
        <ele>847</ele>
        <time>2017-05-20T14:47:49Z</time>
      </trkpt>
      <trkpt lat="42.5671" lon="2.25777">
        <ele>845</ele>
        <time>2017-05-20T14:48:03Z</time>
      </trkpt>
      <trkpt lat="42.56715" lon="2.25767">
        <ele>843</ele>
        <time>2017-05-20T14:48:16Z</time>
      </trkpt>
      <trkpt lat="42.56718" lon="2.25763">
        <ele>843</ele>
        <time>2017-05-20T14:48:30Z</time>
      </trkpt>
      <trkpt lat="42.56718" lon="2.25761">
        <ele>842</ele>
        <time>2017-05-20T14:48:43Z</time>
      </trkpt>
      <trkpt lat="42.56719" lon="2.2576">
        <ele>842</ele>
        <time>2017-05-20T14:48:54Z</time>
      </trkpt>
      <trkpt lat="42.56726" lon="2.25751">
        <ele>841</ele>
        <time>2017-05-20T14:49:05Z</time>
      </trkpt>
      <trkpt lat="42.56732" lon="2.25743">
        <ele>839</ele>
        <time>2017-05-20T14:49:15Z</time>
      </trkpt>
      <trkpt lat="42.56738" lon="2.25737">
        <ele>838</ele>
        <time>2017-05-20T14:49:25Z</time>
      </trkpt>
      <trkpt lat="42.56742" lon="2.25728">
        <ele>836</ele>
        <time>2017-05-20T14:49:35Z</time>
      </trkpt>
      <trkpt lat="42.56751" lon="2.25715">
        <ele>833</ele>
        <time>2017-05-20T14:49:49Z</time>
      </trkpt>
      <trkpt lat="42.56756" lon="2.25707">
        <ele>831</ele>
        <time>2017-05-20T14:50:00Z</time>
      </trkpt>
      <trkpt lat="42.56762" lon="2.25701">
        <ele>830</ele>
        <time>2017-05-20T14:50:11Z</time>
      </trkpt>
      <trkpt lat="42.5677" lon="2.25693">
        <ele>828</ele>
        <time>2017-05-20T14:50:23Z</time>
      </trkpt>
      <trkpt lat="42.56778" lon="2.25683">
        <ele>826</ele>
        <time>2017-05-20T14:50:36Z</time>
      </trkpt>
      <trkpt lat="42.56783" lon="2.25675">
        <ele>824</ele>
        <time>2017-05-20T14:50:47Z</time>
      </trkpt>
      <trkpt lat="42.56785" lon="2.25665">
        <ele>821</ele>
        <time>2017-05-20T14:50:58Z</time>
      </trkpt>
      <trkpt lat="42.5679" lon="2.25658">
        <ele>818</ele>
        <time>2017-05-20T14:51:11Z</time>
      </trkpt>
      <trkpt lat="42.568" lon="2.25652">
        <ele>814</ele>
        <time>2017-05-20T14:51:23Z</time>
      </trkpt>
      <trkpt lat="42.56805" lon="2.25652">
        <ele>812</ele>
        <time>2017-05-20T14:51:35Z</time>
      </trkpt>
      <trkpt lat="42.56818" lon="2.25657">
        <ele>811</ele>
        <time>2017-05-20T14:51:49Z</time>
      </trkpt>
      <trkpt lat="42.56827" lon="2.25666">
        <ele>812</ele>
        <time>2017-05-20T14:52:00Z</time>
      </trkpt>
      <trkpt lat="42.56833" lon="2.25674">
        <ele>814</ele>
        <time>2017-05-20T14:52:11Z</time>
      </trkpt>
      <trkpt lat="42.56842" lon="2.25681">
        <ele>816</ele>
        <time>2017-05-20T14:52:24Z</time>
      </trkpt>
      <trkpt lat="42.56849" lon="2.25683">
        <ele>817</ele>
        <time>2017-05-20T14:52:33Z</time>
      </trkpt>
      <trkpt lat="42.56854" lon="2.25677">
        <ele>815</ele>
        <time>2017-05-20T14:52:43Z</time>
      </trkpt>
      <trkpt lat="42.56854" lon="2.25664">
        <ele>810</ele>
        <time>2017-05-20T14:52:54Z</time>
      </trkpt>
      <trkpt lat="42.56855" lon="2.25657">
        <ele>808</ele>
        <time>2017-05-20T14:52:57Z</time>
      </trkpt>
      <trkpt lat="42.56863" lon="2.2564">
        <ele>804</ele>
        <time>2017-05-20T14:53:06Z</time>
      </trkpt>
      <trkpt lat="42.56871" lon="2.25626">
        <ele>802</ele>
        <time>2017-05-20T14:53:17Z</time>
      </trkpt>
      <trkpt lat="42.56874" lon="2.25608">
        <ele>800</ele>
        <time>2017-05-20T14:53:28Z</time>
      </trkpt>
      <trkpt lat="42.56877" lon="2.25599">
        <ele>799</ele>
        <time>2017-05-20T14:53:37Z</time>
      </trkpt>
      <trkpt lat="42.56881" lon="2.25593">
        <ele>799</ele>
        <time>2017-05-20T14:53:46Z</time>
      </trkpt>
      <trkpt lat="42.56881" lon="2.25585">
        <ele>797</ele>
        <time>2017-05-20T14:53:53Z</time>
      </trkpt>
      <trkpt lat="42.56882" lon="2.25579">
        <ele>797</ele>
        <time>2017-05-20T14:53:58Z</time>
      </trkpt>
      <trkpt lat="42.56887" lon="2.25564">
        <ele>797</ele>
        <time>2017-05-20T14:54:07Z</time>
      </trkpt>
      <trkpt lat="42.56886" lon="2.25576">
        <ele>798</ele>
        <time>2017-05-20T14:54:16Z</time>
      </trkpt>
      <trkpt lat="42.56891" lon="2.2555">
        <ele>796</ele>
        <time>2017-05-20T14:54:32Z</time>
      </trkpt>
      <trkpt lat="42.56883" lon="2.25547">
        <ele>793</ele>
        <time>2017-05-20T14:54:40Z</time>
      </trkpt>
      <trkpt lat="42.56876" lon="2.25538">
        <ele>789</ele>
        <time>2017-05-20T14:54:55Z</time>
      </trkpt>
      <trkpt lat="42.56875" lon="2.25532">
        <ele>788</ele>
        <time>2017-05-20T14:55:07Z</time>
      </trkpt>
      <trkpt lat="42.56876" lon="2.25529">
        <ele>788</ele>
        <time>2017-05-20T14:55:15Z</time>
      </trkpt>
      <trkpt lat="42.56876" lon="2.25517">
        <ele>787</ele>
        <time>2017-05-20T14:55:25Z</time>
      </trkpt>
      <trkpt lat="42.56876" lon="2.25508">
        <ele>785</ele>
        <time>2017-05-20T14:55:33Z</time>
      </trkpt>
      <trkpt lat="42.56878" lon="2.25495">
        <ele>784</ele>
        <time>2017-05-20T14:55:44Z</time>
      </trkpt>
      <trkpt lat="42.56879" lon="2.25494">
        <ele>784</ele>
        <time>2017-05-20T14:55:45Z</time>
      </trkpt>
      <trkpt lat="42.56884" lon="2.25483">
        <ele>784</ele>
        <time>2017-05-20T14:55:54Z</time>
      </trkpt>
      <trkpt lat="42.56887" lon="2.25478">
        <ele>784</ele>
        <time>2017-05-20T14:55:59Z</time>
      </trkpt>
      <trkpt lat="42.5689" lon="2.25467">
        <ele>783</ele>
        <time>2017-05-20T14:56:09Z</time>
      </trkpt>
      <trkpt lat="42.56892" lon="2.25465">
        <ele>784</ele>
        <time>2017-05-20T14:56:15Z</time>
      </trkpt>
      <trkpt lat="42.56895" lon="2.25462">
        <ele>784</ele>
        <time>2017-05-20T14:56:18Z</time>
      </trkpt>
      <trkpt lat="42.56903" lon="2.25458">
        <ele>785</ele>
        <time>2017-05-20T14:56:28Z</time>
      </trkpt>
      <trkpt lat="42.56907" lon="2.25454">
        <ele>786</ele>
        <time>2017-05-20T14:56:35Z</time>
      </trkpt>
      <trkpt lat="42.56914" lon="2.2545">
        <ele>787</ele>
        <time>2017-05-20T14:56:43Z</time>
      </trkpt>
      <trkpt lat="42.56915" lon="2.2545">
        <ele>787</ele>
        <time>2017-05-20T14:56:49Z</time>
      </trkpt>
      <trkpt lat="42.56916" lon="2.25447">
        <ele>787</ele>
        <time>2017-05-20T14:56:59Z</time>
      </trkpt>
      <trkpt lat="42.56925" lon="2.25432">
        <ele>786</ele>
        <time>2017-05-20T14:57:12Z</time>
      </trkpt>
      <trkpt lat="42.5693" lon="2.25427">
        <ele>787</ele>
        <time>2017-05-20T14:57:20Z</time>
      </trkpt>
      <trkpt lat="42.56935" lon="2.2542">
        <ele>787</ele>
        <time>2017-05-20T14:57:27Z</time>
      </trkpt>
      <trkpt lat="42.56945" lon="2.25406">
        <ele>787</ele>
        <time>2017-05-20T14:57:39Z</time>
      </trkpt>
      <trkpt lat="42.56954" lon="2.25398">
        <ele>787</ele>
        <time>2017-05-20T14:57:49Z</time>
      </trkpt>
      <trkpt lat="42.56956" lon="2.25394">
        <ele>787</ele>
        <time>2017-05-20T14:57:52Z</time>
      </trkpt>
      <trkpt lat="42.56962" lon="2.25389">
        <ele>787</ele>
        <time>2017-05-20T14:57:59Z</time>
      </trkpt>
      <trkpt lat="42.56969" lon="2.25379">
        <ele>786</ele>
        <time>2017-05-20T14:58:10Z</time>
      </trkpt>
      <trkpt lat="42.56974" lon="2.25377">
        <ele>787</ele>
        <time>2017-05-20T14:58:22Z</time>
      </trkpt>
      <trkpt lat="42.56976" lon="2.25374">
        <ele>787</ele>
        <time>2017-05-20T14:58:24Z</time>
      </trkpt>
      <trkpt lat="42.56985" lon="2.25364">
        <ele>786</ele>
        <time>2017-05-20T14:58:36Z</time>
      </trkpt>
      <trkpt lat="42.56986" lon="2.25363">
        <ele>786</ele>
        <time>2017-05-20T14:58:37Z</time>
      </trkpt>
      <trkpt lat="42.56996" lon="2.25359">
        <ele>786</ele>
        <time>2017-05-20T14:58:47Z</time>
      </trkpt>
      <trkpt lat="42.57002" lon="2.25356">
        <ele>786</ele>
        <time>2017-05-20T14:58:56Z</time>
      </trkpt>
      <trkpt lat="42.57015" lon="2.25354">
        <ele>787</ele>
        <time>2017-05-20T14:59:11Z</time>
      </trkpt>
      <trkpt lat="42.57023" lon="2.25356">
        <ele>788</ele>
        <time>2017-05-20T14:59:20Z</time>
      </trkpt>
      <trkpt lat="42.57034" lon="2.2536">
        <ele>789</ele>
        <time>2017-05-20T14:59:32Z</time>
      </trkpt>
      <trkpt lat="42.57038" lon="2.25368">
        <ele>793</ele>
        <time>2017-05-20T14:59:46Z</time>
      </trkpt>
      <trkpt lat="42.57051" lon="2.25372">
        <ele>795</ele>
        <time>2017-05-20T14:59:58Z</time>
      </trkpt>
      <trkpt lat="42.57059" lon="2.25371">
        <ele>794</ele>
        <time>2017-05-20T15:00:11Z</time>
      </trkpt>
      <trkpt lat="42.5707" lon="2.25378">
        <ele>796</ele>
        <time>2017-05-20T15:00:24Z</time>
      </trkpt>
      <trkpt lat="42.57084" lon="2.25383">
        <ele>796</ele>
        <time>2017-05-20T15:00:35Z</time>
      </trkpt>
      <trkpt lat="42.57094" lon="2.25395">
        <ele>800</ele>
        <time>2017-05-20T15:00:48Z</time>
      </trkpt>
      <trkpt lat="42.57101" lon="2.2539">
        <ele>797</ele>
        <time>2017-05-20T15:01:00Z</time>
      </trkpt>
      <trkpt lat="42.571" lon="2.25387">
        <ele>796</ele>
        <time>2017-05-20T15:01:17Z</time>
      </trkpt>
    </trkseg>
  </trk>
</gpx>